<?xml version="1.0" encoding="UTF-8" standalone="no" ?>
<gpx xmlns="http://www.topografix.com/GPX/1/1" xmlns:xsi="http://www.w3.org/2001/XMLSchema-instance" xsi:schemaLocation="http://www.topografix.com/GPX/1/1 http://www.topografix.com/GPX/1/1/gpx.xsd" version="1.1" creator="VisuGPX - https://www.visugpx.com">
  <metadata>
    <name>2015-02-04 La Féclaz</name>
    <desc><![CDATA[Avec Nico, neige excellente (-7°C), brouillard]]></desc>
  </metadata>
  <trk>
    <name><![CDATA[2015-02-04_Feclaz_fond]]></name>
    <trkseg>
      <trkpt lat="45.64801" lon="5.98574">
        <ele>1385</ele>
        <time>2015-02-04T09:55:34Z</time>
      </trkpt>
      <trkpt lat="45.64767" lon="5.98544">
        <ele>1330.538414942</ele>
        <time>2015-02-04T09:56:01Z</time>
      </trkpt>
      <trkpt lat="45.64767" lon="5.98544">
        <ele>1330.538414942</ele>
        <time>2015-02-04T09:56:04Z</time>
      </trkpt>
      <trkpt lat="45.64764" lon="5.98543">
        <ele>1330.538414942</ele>
        <time>2015-02-04T09:56:34Z</time>
      </trkpt>
      <trkpt lat="45.64763" lon="5.98543">
        <ele>1330.538414942</ele>
        <time>2015-02-04T09:56:45Z</time>
      </trkpt>
      <trkpt lat="45.64761" lon="5.98543">
        <ele>1330.538414942</ele>
        <time>2015-02-04T09:56:59Z</time>
      </trkpt>
      <trkpt lat="45.64757" lon="5.98545">
        <ele>1334.880433259</ele>
        <time>2015-02-04T09:57:20Z</time>
      </trkpt>
      <trkpt lat="45.64758" lon="5.98555">
        <ele>1334.880433259</ele>
        <time>2015-02-04T09:57:34Z</time>
      </trkpt>
      <trkpt lat="45.648" lon="5.98661">
        <ele>1337.613280738</ele>
        <time>2015-02-04T09:58:00Z</time>
      </trkpt>
      <trkpt lat="45.64899" lon="5.9876">
        <ele>1344.570100179</ele>
        <time>2015-02-04T09:58:40Z</time>
      </trkpt>
      <trkpt lat="45.64919" lon="5.98764">
        <ele>1351.590189597</ele>
        <time>2015-02-04T09:59:00Z</time>
      </trkpt>
      <trkpt lat="45.64947" lon="5.98764">
        <ele>1357.937869369</ele>
        <time>2015-02-04T09:59:19Z</time>
      </trkpt>
      <trkpt lat="45.6493" lon="5.98844">
        <ele>1362.401869289</ele>
        <time>2015-02-04T10:00:00Z</time>
      </trkpt>
      <trkpt lat="45.64865" lon="5.98882">
        <ele>1365.397399085</ele>
        <time>2015-02-04T10:00:23Z</time>
      </trkpt>
      <trkpt lat="45.64864" lon="5.98883">
        <ele>1365.397399085</ele>
        <time>2015-02-04T10:00:25Z</time>
      </trkpt>
      <trkpt lat="45.64852" lon="5.98897">
        <ele>1367.716820824</ele>
        <time>2015-02-04T10:00:30Z</time>
      </trkpt>
      <trkpt lat="45.64845" lon="5.9891">
        <ele>1368.943536524</ele>
        <time>2015-02-04T10:00:36Z</time>
      </trkpt>
      <trkpt lat="45.64812" lon="5.98925">
        <ele>1369.291743049</ele>
        <time>2015-02-04T10:00:39Z</time>
      </trkpt>
      <trkpt lat="45.64773" lon="5.99047">
        <ele>1367.858875314</ele>
        <time>2015-02-04T10:01:10Z</time>
      </trkpt>
      <trkpt lat="45.64836" lon="5.99214">
        <ele>1366.205126755</ele>
        <time>2015-02-04T10:02:09Z</time>
      </trkpt>
      <trkpt lat="45.64851" lon="5.99322">
        <ele>1364.117339724</ele>
        <time>2015-02-04T10:02:36Z</time>
      </trkpt>
      <trkpt lat="45.64855" lon="5.99337">
        <ele>1361.904545081</ele>
        <time>2015-02-04T10:02:39Z</time>
      </trkpt>
      <trkpt lat="45.6486" lon="5.99344">
        <ele>1361.904545081</ele>
        <time>2015-02-04T10:02:49Z</time>
      </trkpt>
      <trkpt lat="45.64864" lon="5.9938">
        <ele>1359.343087674</ele>
        <time>2015-02-04T10:03:00Z</time>
      </trkpt>
      <trkpt lat="45.64891" lon="5.99511">
        <ele>1357.040529067</ele>
        <time>2015-02-04T10:03:20Z</time>
      </trkpt>
      <trkpt lat="45.64926" lon="5.99542">
        <ele>1354.710991207</ele>
        <time>2015-02-04T10:03:35Z</time>
      </trkpt>
      <trkpt lat="45.64935" lon="5.99546">
        <ele>1354.710991207</ele>
        <time>2015-02-04T10:03:40Z</time>
      </trkpt>
      <trkpt lat="45.64943" lon="5.99555">
        <ele>1352.885958277</ele>
        <time>2015-02-04T10:03:44Z</time>
      </trkpt>
      <trkpt lat="45.65044" lon="5.99579">
        <ele>1354.995753432</ele>
        <time>2015-02-04T10:04:44Z</time>
      </trkpt>
      <trkpt lat="45.65051" lon="5.99578">
        <ele>1354.995753432</ele>
        <time>2015-02-04T10:04:56Z</time>
      </trkpt>
      <trkpt lat="45.65067" lon="5.99594">
        <ele>1355.962822564</ele>
        <time>2015-02-04T10:05:07Z</time>
      </trkpt>
      <trkpt lat="45.65088" lon="5.99592">
        <ele>1356.840734556</ele>
        <time>2015-02-04T10:05:45Z</time>
      </trkpt>
      <trkpt lat="45.65213" lon="5.995">
        <ele>1363.490395903</ele>
        <time>2015-02-04T10:06:41Z</time>
      </trkpt>
      <trkpt lat="45.65256" lon="5.99476">
        <ele>1367.136554766</ele>
        <time>2015-02-04T10:07:09Z</time>
      </trkpt>
      <trkpt lat="45.65361" lon="5.99464">
        <ele>1371.309399202</ele>
        <time>2015-02-04T10:07:45Z</time>
      </trkpt>
      <trkpt lat="45.65488" lon="5.99638">
        <ele>1373.071285729</ele>
        <time>2015-02-04T10:08:48Z</time>
      </trkpt>
      <trkpt lat="45.6563" lon="5.99861">
        <ele>1375.227640062</ele>
        <time>2015-02-04T10:09:48Z</time>
      </trkpt>
      <trkpt lat="45.65649" lon="5.99899">
        <ele>1376.748811587</ele>
        <time>2015-02-04T10:10:42Z</time>
      </trkpt>
      <trkpt lat="45.65657" lon="5.99907">
        <ele>1377.969553271</ele>
        <time>2015-02-04T10:10:43Z</time>
      </trkpt>
      <trkpt lat="45.65658" lon="5.99906">
        <ele>1377.969553271</ele>
        <time>2015-02-04T10:11:44Z</time>
      </trkpt>
      <trkpt lat="45.65658" lon="5.99906">
        <ele>1377.969553271</ele>
        <time>2015-02-04T10:11:53Z</time>
      </trkpt>
      <trkpt lat="45.6575" lon="6.00111">
        <ele>1378.911668203</ele>
        <time>2015-02-04T10:13:07Z</time>
      </trkpt>
      <trkpt lat="45.65955" lon="6.00381">
        <ele>1380.844472278</ele>
        <time>2015-02-04T10:15:09Z</time>
      </trkpt>
      <trkpt lat="45.66058" lon="6.00442">
        <ele>1382.577402096</ele>
        <time>2015-02-04T10:15:44Z</time>
      </trkpt>
      <trkpt lat="45.66062" lon="6.00438">
        <ele>1382.577402096</ele>
        <time>2015-02-04T10:15:53Z</time>
      </trkpt>
      <trkpt lat="45.66099" lon="6.00406">
        <ele>1384.260673156</ele>
        <time>2015-02-04T10:16:00Z</time>
      </trkpt>
      <trkpt lat="45.6619" lon="6.00394">
        <ele>1385.060934519</ele>
        <time>2015-02-04T10:16:29Z</time>
      </trkpt>
      <trkpt lat="45.66241" lon="6.00451">
        <ele>1386.011736518</ele>
        <time>2015-02-04T10:16:44Z</time>
      </trkpt>
      <trkpt lat="45.66295" lon="6.00555">
        <ele>1386.263415472</ele>
        <time>2015-02-04T10:17:28Z</time>
      </trkpt>
      <trkpt lat="45.66308" lon="6.00626">
        <ele>1386.142792706</ele>
        <time>2015-02-04T10:17:44Z</time>
      </trkpt>
      <trkpt lat="45.66317" lon="6.00673">
        <ele>1385.819034185</ele>
        <time>2015-02-04T10:18:00Z</time>
      </trkpt>
      <trkpt lat="45.66364" lon="6.0075">
        <ele>1387.167390998</ele>
        <time>2015-02-04T10:18:24Z</time>
      </trkpt>
      <trkpt lat="45.66516" lon="6.00928">
        <ele>1388.804360102</ele>
        <time>2015-02-04T10:19:44Z</time>
      </trkpt>
      <trkpt lat="45.66523" lon="6.00939">
        <ele>1389.993429384</ele>
        <time>2015-02-04T10:19:51Z</time>
      </trkpt>
      <trkpt lat="45.66545" lon="6.00977">
        <ele>1391.202551428</ele>
        <time>2015-02-04T10:20:07Z</time>
      </trkpt>
      <trkpt lat="45.66742" lon="6.01005">
        <ele>1391.116345857</ele>
        <time>2015-02-04T10:21:06Z</time>
      </trkpt>
      <trkpt lat="45.66786" lon="6.01072">
        <ele>1391.445620154</ele>
        <time>2015-02-04T10:21:24Z</time>
      </trkpt>
      <trkpt lat="45.66835" lon="6.01078">
        <ele>1391.877905649</ele>
        <time>2015-02-04T10:21:51Z</time>
      </trkpt>
      <trkpt lat="45.66855" lon="6.01063">
        <ele>1390.925678787</ele>
        <time>2015-02-04T10:21:55Z</time>
      </trkpt>
      <trkpt lat="45.66864" lon="6.01066">
        <ele>1390.040046564</ele>
        <time>2015-02-04T10:22:00Z</time>
      </trkpt>
      <trkpt lat="45.66936" lon="6.01168">
        <ele>1387.880112681</ele>
        <time>2015-02-04T10:22:21Z</time>
      </trkpt>
      <trkpt lat="45.67032" lon="6.01274">
        <ele>1385.455750656</ele>
        <time>2015-02-04T10:23:00Z</time>
      </trkpt>
      <trkpt lat="45.67069" lon="6.01351">
        <ele>1383.408034257</ele>
        <time>2015-02-04T10:23:20Z</time>
      </trkpt>
      <trkpt lat="45.67106" lon="6.01445">
        <ele>1382.48065097</ele>
        <time>2015-02-04T10:23:46Z</time>
      </trkpt>
      <trkpt lat="45.67134" lon="6.01465">
        <ele>1381.242289684</ele>
        <time>2015-02-04T10:23:51Z</time>
      </trkpt>
      <trkpt lat="45.6715" lon="6.01474">
        <ele>1380.029934424</ele>
        <time>2015-02-04T10:23:54Z</time>
      </trkpt>
      <trkpt lat="45.67161" lon="6.01463">
        <ele>1378.097712177</ele>
        <time>2015-02-04T10:24:00Z</time>
      </trkpt>
      <trkpt lat="45.67232" lon="6.01189">
        <ele>1375.665465867</ele>
        <time>2015-02-04T10:25:05Z</time>
      </trkpt>
      <trkpt lat="45.67323" lon="6.0112">
        <ele>1373.84022385</ele>
        <time>2015-02-04T10:25:41Z</time>
      </trkpt>
      <trkpt lat="45.67509" lon="6.01007">
        <ele>1373.485506517</ele>
        <time>2015-02-04T10:27:06Z</time>
      </trkpt>
      <trkpt lat="45.67543" lon="6.01142">
        <ele>1371.637895418</ele>
        <time>2015-02-04T10:28:04Z</time>
      </trkpt>
      <trkpt lat="45.67543" lon="6.0115">
        <ele>1371.637895418</ele>
        <time>2015-02-04T10:28:11Z</time>
      </trkpt>
      <trkpt lat="45.67486" lon="6.01284">
        <ele>1369.625670573</ele>
        <time>2015-02-04T10:28:35Z</time>
      </trkpt>
      <trkpt lat="45.67443" lon="6.01434">
        <ele>1368.964871689</ele>
        <time>2015-02-04T10:29:19Z</time>
      </trkpt>
      <trkpt lat="45.67444" lon="6.01436">
        <ele>1368.964871689</ele>
        <time>2015-02-04T10:29:28Z</time>
      </trkpt>
      <trkpt lat="45.67478" lon="6.01968">
        <ele>1367.018011992</ele>
        <time>2015-02-04T10:31:04Z</time>
      </trkpt>
      <trkpt lat="45.6748" lon="6.01966">
        <ele>1367.018011992</ele>
        <time>2015-02-04T10:31:13Z</time>
      </trkpt>
      <trkpt lat="45.67493" lon="6.01984">
        <ele>1365.83030227</ele>
        <time>2015-02-04T10:31:19Z</time>
      </trkpt>
      <trkpt lat="45.67654" lon="6.01961">
        <ele>1364.456475713</ele>
        <time>2015-02-04T10:32:46Z</time>
      </trkpt>
      <trkpt lat="45.6766" lon="6.01946">
        <ele>1363.509280756</ele>
        <time>2015-02-04T10:32:49Z</time>
      </trkpt>
      <trkpt lat="45.67663" lon="6.01936">
        <ele>1363.509280756</ele>
        <time>2015-02-04T10:32:54Z</time>
      </trkpt>
      <trkpt lat="45.67669" lon="6.01922">
        <ele>1362.663905396</ele>
        <time>2015-02-04T10:32:59Z</time>
      </trkpt>
      <trkpt lat="45.67679" lon="6.01891">
        <ele>1361.327977992</ele>
        <time>2015-02-04T10:33:04Z</time>
      </trkpt>
      <trkpt lat="45.67685" lon="6.01874">
        <ele>1360.72076285</ele>
        <time>2015-02-04T10:33:09Z</time>
      </trkpt>
      <trkpt lat="45.67688" lon="6.0186">
        <ele>1360.494165036</ele>
        <time>2015-02-04T10:33:14Z</time>
      </trkpt>
      <trkpt lat="45.6769" lon="6.01855">
        <ele>1360.494165036</ele>
        <time>2015-02-04T10:33:19Z</time>
      </trkpt>
      <trkpt lat="45.67693" lon="6.01842">
        <ele>1360.181469584</ele>
        <time>2015-02-04T10:33:24Z</time>
      </trkpt>
      <trkpt lat="45.67695" lon="6.01827">
        <ele>1359.937624042</ele>
        <time>2015-02-04T10:33:29Z</time>
      </trkpt>
      <trkpt lat="45.67701" lon="6.01807">
        <ele>1359.904705805</ele>
        <time>2015-02-04T10:33:34Z</time>
      </trkpt>
      <trkpt lat="45.67707" lon="6.01792">
        <ele>1359.631058707</ele>
        <time>2015-02-04T10:33:39Z</time>
      </trkpt>
      <trkpt lat="45.67713" lon="6.01785">
        <ele>1359.631058707</ele>
        <time>2015-02-04T10:33:44Z</time>
      </trkpt>
      <trkpt lat="45.67729" lon="6.01791">
        <ele>1359.717846902</ele>
        <time>2015-02-04T10:33:49Z</time>
      </trkpt>
      <trkpt lat="45.67742" lon="6.01797">
        <ele>1360.57275901</ele>
        <time>2015-02-04T10:33:54Z</time>
      </trkpt>
      <trkpt lat="45.67751" lon="6.01806">
        <ele>1361.70045996</ele>
        <time>2015-02-04T10:33:59Z</time>
      </trkpt>
      <trkpt lat="45.67758" lon="6.01823">
        <ele>1363.0775754</ele>
        <time>2015-02-04T10:34:04Z</time>
      </trkpt>
      <trkpt lat="45.67767" lon="6.01835">
        <ele>1364.392569316</ele>
        <time>2015-02-04T10:34:09Z</time>
      </trkpt>
      <trkpt lat="45.67773" lon="6.01848">
        <ele>1365.64677719</ele>
        <time>2015-02-04T10:34:14Z</time>
      </trkpt>
      <trkpt lat="45.67784" lon="6.01859">
        <ele>1366.552549077</ele>
        <time>2015-02-04T10:34:19Z</time>
      </trkpt>
      <trkpt lat="45.67793" lon="6.01858">
        <ele>1366.552549077</ele>
        <time>2015-02-04T10:34:24Z</time>
      </trkpt>
      <trkpt lat="45.67802" lon="6.01868">
        <ele>1368.432615912</ele>
        <time>2015-02-04T10:34:29Z</time>
      </trkpt>
      <trkpt lat="45.6781" lon="6.0188">
        <ele>1370.198809154</ele>
        <time>2015-02-04T10:34:34Z</time>
      </trkpt>
      <trkpt lat="45.67816" lon="6.01894">
        <ele>1371.998768238</ele>
        <time>2015-02-04T10:34:39Z</time>
      </trkpt>
      <trkpt lat="45.67823" lon="6.01912">
        <ele>1373.680483432</ele>
        <time>2015-02-04T10:34:44Z</time>
      </trkpt>
      <trkpt lat="45.67829" lon="6.01933">
        <ele>1374.959274774</ele>
        <time>2015-02-04T10:34:49Z</time>
      </trkpt>
      <trkpt lat="45.67853" lon="6.01955">
        <ele>1375.716737229</ele>
        <time>2015-02-04T10:34:54Z</time>
      </trkpt>
      <trkpt lat="45.67874" lon="6.01972">
        <ele>1376.421273446</ele>
        <time>2015-02-04T10:34:59Z</time>
      </trkpt>
      <trkpt lat="45.6789" lon="6.02002">
        <ele>1376.353488083</ele>
        <time>2015-02-04T10:35:04Z</time>
      </trkpt>
      <trkpt lat="45.67895" lon="6.02022">
        <ele>1376.002437111</ele>
        <time>2015-02-04T10:35:09Z</time>
      </trkpt>
      <trkpt lat="45.67909" lon="6.02053">
        <ele>1375.245307683</ele>
        <time>2015-02-04T10:35:14Z</time>
      </trkpt>
      <trkpt lat="45.67917" lon="6.02066">
        <ele>1374.402009786</ele>
        <time>2015-02-04T10:35:19Z</time>
      </trkpt>
      <trkpt lat="45.6793" lon="6.02098">
        <ele>1373.913445473</ele>
        <time>2015-02-04T10:35:24Z</time>
      </trkpt>
      <trkpt lat="45.67944" lon="6.02115">
        <ele>1373.322003798</ele>
        <time>2015-02-04T10:35:29Z</time>
      </trkpt>
      <trkpt lat="45.67955" lon="6.02141">
        <ele>1372.636558636</ele>
        <time>2015-02-04T10:35:34Z</time>
      </trkpt>
      <trkpt lat="45.6796" lon="6.02174">
        <ele>1371.432948784</ele>
        <time>2015-02-04T10:35:39Z</time>
      </trkpt>
      <trkpt lat="45.67969" lon="6.02194">
        <ele>1370.617616359</ele>
        <time>2015-02-04T10:35:44Z</time>
      </trkpt>
      <trkpt lat="45.6797" lon="6.02203">
        <ele>1370.617616359</ele>
        <time>2015-02-04T10:35:49Z</time>
      </trkpt>
      <trkpt lat="45.67972" lon="6.02207">
        <ele>1370.596717697</ele>
        <time>2015-02-04T10:35:54Z</time>
      </trkpt>
      <trkpt lat="45.67974" lon="6.0221">
        <ele>1370.596717697</ele>
        <time>2015-02-04T10:35:59Z</time>
      </trkpt>
      <trkpt lat="45.67975" lon="6.02211">
        <ele>1370.596717697</ele>
        <time>2015-02-04T10:36:04Z</time>
      </trkpt>
      <trkpt lat="45.67975" lon="6.02211">
        <ele>1370.596717697</ele>
        <time>2015-02-04T10:36:09Z</time>
      </trkpt>
      <trkpt lat="45.67975" lon="6.02211">
        <ele>1370.596717697</ele>
        <time>2015-02-04T10:36:14Z</time>
      </trkpt>
      <trkpt lat="45.67975" lon="6.02211">
        <ele>1370.596717697</ele>
        <time>2015-02-04T10:36:19Z</time>
      </trkpt>
      <trkpt lat="45.67975" lon="6.02211">
        <ele>1370.596717697</ele>
        <time>2015-02-04T10:36:24Z</time>
      </trkpt>
      <trkpt lat="45.67978" lon="6.0221">
        <ele>1370.596717697</ele>
        <time>2015-02-04T10:36:29Z</time>
      </trkpt>
      <trkpt lat="45.67987" lon="6.02194">
        <ele>1369.725014817</ele>
        <time>2015-02-04T10:36:34Z</time>
      </trkpt>
      <trkpt lat="45.67993" lon="6.02168">
        <ele>1368.355568111</ele>
        <time>2015-02-04T10:36:39Z</time>
      </trkpt>
      <trkpt lat="45.68002" lon="6.02129">
        <ele>1366.528423593</ele>
        <time>2015-02-04T10:36:44Z</time>
      </trkpt>
      <trkpt lat="45.68005" lon="6.02095">
        <ele>1364.281958501</ele>
        <time>2015-02-04T10:36:49Z</time>
      </trkpt>
      <trkpt lat="45.68015" lon="6.02075">
        <ele>1362.229853384</ele>
        <time>2015-02-04T10:36:54Z</time>
      </trkpt>
      <trkpt lat="45.68016" lon="6.02075">
        <ele>1362.229853384</ele>
        <time>2015-02-04T10:36:59Z</time>
      </trkpt>
      <trkpt lat="45.68017" lon="6.02074">
        <ele>1362.229853384</ele>
        <time>2015-02-04T10:37:04Z</time>
      </trkpt>
      <trkpt lat="45.6802" lon="6.02073">
        <ele>1362.229853384</ele>
        <time>2015-02-04T10:37:09Z</time>
      </trkpt>
      <trkpt lat="45.68021" lon="6.02073">
        <ele>1362.229853384</ele>
        <time>2015-02-04T10:37:14Z</time>
      </trkpt>
      <trkpt lat="45.68021" lon="6.02073">
        <ele>1362.229853384</ele>
        <time>2015-02-04T10:37:19Z</time>
      </trkpt>
      <trkpt lat="45.68021" lon="6.02073">
        <ele>1362.229853384</ele>
        <time>2015-02-04T10:37:24Z</time>
      </trkpt>
      <trkpt lat="45.68022" lon="6.02073">
        <ele>1362.229853384</ele>
        <time>2015-02-04T10:37:29Z</time>
      </trkpt>
      <trkpt lat="45.68022" lon="6.02073">
        <ele>1362.229853384</ele>
        <time>2015-02-04T10:37:34Z</time>
      </trkpt>
      <trkpt lat="45.68022" lon="6.02073">
        <ele>1362.229853384</ele>
        <time>2015-02-04T10:37:39Z</time>
      </trkpt>
      <trkpt lat="45.68022" lon="6.02073">
        <ele>1362.229853384</ele>
        <time>2015-02-04T10:37:44Z</time>
      </trkpt>
      <trkpt lat="45.68022" lon="6.02073">
        <ele>1362.229853384</ele>
        <time>2015-02-04T10:37:49Z</time>
      </trkpt>
      <trkpt lat="45.68022" lon="6.02073">
        <ele>1362.229853384</ele>
        <time>2015-02-04T10:37:54Z</time>
      </trkpt>
      <trkpt lat="45.68022" lon="6.02073">
        <ele>1362.229853384</ele>
        <time>2015-02-04T10:37:59Z</time>
      </trkpt>
      <trkpt lat="45.68022" lon="6.02073">
        <ele>1362.229853384</ele>
        <time>2015-02-04T10:38:04Z</time>
      </trkpt>
      <trkpt lat="45.68022" lon="6.02073">
        <ele>1362.229853384</ele>
        <time>2015-02-04T10:38:09Z</time>
      </trkpt>
      <trkpt lat="45.68022" lon="6.02073">
        <ele>1362.229853384</ele>
        <time>2015-02-04T10:38:14Z</time>
      </trkpt>
      <trkpt lat="45.68022" lon="6.02073">
        <ele>1362.229853384</ele>
        <time>2015-02-04T10:38:19Z</time>
      </trkpt>
      <trkpt lat="45.68022" lon="6.02073">
        <ele>1362.229853384</ele>
        <time>2015-02-04T10:38:24Z</time>
      </trkpt>
      <trkpt lat="45.68022" lon="6.02073">
        <ele>1362.229853384</ele>
        <time>2015-02-04T10:38:29Z</time>
      </trkpt>
      <trkpt lat="45.68022" lon="6.02073">
        <ele>1362.229853384</ele>
        <time>2015-02-04T10:38:34Z</time>
      </trkpt>
      <trkpt lat="45.68022" lon="6.02073">
        <ele>1362.229853384</ele>
        <time>2015-02-04T10:38:39Z</time>
      </trkpt>
      <trkpt lat="45.68022" lon="6.02073">
        <ele>1362.229853384</ele>
        <time>2015-02-04T10:38:44Z</time>
      </trkpt>
      <trkpt lat="45.68022" lon="6.02073">
        <ele>1362.229853384</ele>
        <time>2015-02-04T10:38:49Z</time>
      </trkpt>
      <trkpt lat="45.68022" lon="6.02073">
        <ele>1362.229853384</ele>
        <time>2015-02-04T10:38:54Z</time>
      </trkpt>
      <trkpt lat="45.68022" lon="6.02073">
        <ele>1362.229853384</ele>
        <time>2015-02-04T10:38:59Z</time>
      </trkpt>
      <trkpt lat="45.68022" lon="6.02073">
        <ele>1362.229853384</ele>
        <time>2015-02-04T10:39:04Z</time>
      </trkpt>
      <trkpt lat="45.68022" lon="6.02073">
        <ele>1362.229853384</ele>
        <time>2015-02-04T10:39:09Z</time>
      </trkpt>
      <trkpt lat="45.68022" lon="6.02073">
        <ele>1362.229853384</ele>
        <time>2015-02-04T10:39:14Z</time>
      </trkpt>
      <trkpt lat="45.68022" lon="6.02073">
        <ele>1362.229853384</ele>
        <time>2015-02-04T10:39:19Z</time>
      </trkpt>
      <trkpt lat="45.68022" lon="6.02073">
        <ele>1362.229853384</ele>
        <time>2015-02-04T10:39:24Z</time>
      </trkpt>
      <trkpt lat="45.68022" lon="6.02073">
        <ele>1362.229853384</ele>
        <time>2015-02-04T10:39:29Z</time>
      </trkpt>
      <trkpt lat="45.68022" lon="6.02073">
        <ele>1362.229853384</ele>
        <time>2015-02-04T10:39:34Z</time>
      </trkpt>
      <trkpt lat="45.68022" lon="6.02073">
        <ele>1362.229853384</ele>
        <time>2015-02-04T10:39:39Z</time>
      </trkpt>
      <trkpt lat="45.68022" lon="6.02073">
        <ele>1362.229853384</ele>
        <time>2015-02-04T10:39:44Z</time>
      </trkpt>
      <trkpt lat="45.68023" lon="6.02073">
        <ele>1362.229853384</ele>
        <time>2015-02-04T10:39:49Z</time>
      </trkpt>
      <trkpt lat="45.68023" lon="6.02073">
        <ele>1362.229853384</ele>
        <time>2015-02-04T10:39:54Z</time>
      </trkpt>
      <trkpt lat="45.68023" lon="6.02073">
        <ele>1362.229853384</ele>
        <time>2015-02-04T10:39:59Z</time>
      </trkpt>
      <trkpt lat="45.68023" lon="6.02073">
        <ele>1362.229853384</ele>
        <time>2015-02-04T10:40:04Z</time>
      </trkpt>
      <trkpt lat="45.68023" lon="6.02073">
        <ele>1362.229853384</ele>
        <time>2015-02-04T10:40:09Z</time>
      </trkpt>
      <trkpt lat="45.68023" lon="6.02073">
        <ele>1362.229853384</ele>
        <time>2015-02-04T10:40:14Z</time>
      </trkpt>
      <trkpt lat="45.68023" lon="6.02073">
        <ele>1362.229853384</ele>
        <time>2015-02-04T10:40:19Z</time>
      </trkpt>
      <trkpt lat="45.68032" lon="6.02078">
        <ele>1360.651568884</ele>
        <time>2015-02-04T10:40:24Z</time>
      </trkpt>
      <trkpt lat="45.68037" lon="6.0209">
        <ele>1359.804592716</ele>
        <time>2015-02-04T10:40:29Z</time>
      </trkpt>
      <trkpt lat="45.68044" lon="6.02109">
        <ele>1358.48297053</ele>
        <time>2015-02-04T10:40:34Z</time>
      </trkpt>
      <trkpt lat="45.68057" lon="6.02115">
        <ele>1357.30154645</ele>
        <time>2015-02-04T10:40:39Z</time>
      </trkpt>
      <trkpt lat="45.68064" lon="6.02121">
        <ele>1357.30154645</ele>
        <time>2015-02-04T10:40:44Z</time>
      </trkpt>
      <trkpt lat="45.68076" lon="6.02127">
        <ele>1355.24295719</ele>
        <time>2015-02-04T10:40:49Z</time>
      </trkpt>
      <trkpt lat="45.6808" lon="6.02135">
        <ele>1355.24295719</ele>
        <time>2015-02-04T10:40:54Z</time>
      </trkpt>
      <trkpt lat="45.68087" lon="6.02144">
        <ele>1352.232465485</ele>
        <time>2015-02-04T10:40:59Z</time>
      </trkpt>
      <trkpt lat="45.68097" lon="6.02154">
        <ele>1349.357111272</ele>
        <time>2015-02-04T10:41:04Z</time>
      </trkpt>
      <trkpt lat="45.68113" lon="6.02165">
        <ele>1347.62336504</ele>
        <time>2015-02-04T10:41:09Z</time>
      </trkpt>
      <trkpt lat="45.68123" lon="6.02179">
        <ele>1346.518267312</ele>
        <time>2015-02-04T10:41:14Z</time>
      </trkpt>
      <trkpt lat="45.68129" lon="6.02189">
        <ele>1346.518267312</ele>
        <time>2015-02-04T10:41:19Z</time>
      </trkpt>
      <trkpt lat="45.68134" lon="6.02201">
        <ele>1345.13220848</ele>
        <time>2015-02-04T10:41:24Z</time>
      </trkpt>
      <trkpt lat="45.68145" lon="6.02219">
        <ele>1343.920894817</ele>
        <time>2015-02-04T10:41:29Z</time>
      </trkpt>
      <trkpt lat="45.68155" lon="6.02231">
        <ele>1343.017512089</ele>
        <time>2015-02-04T10:41:34Z</time>
      </trkpt>
      <trkpt lat="45.68169" lon="6.02244">
        <ele>1342.688633175</ele>
        <time>2015-02-04T10:41:39Z</time>
      </trkpt>
      <trkpt lat="45.68179" lon="6.02254">
        <ele>1342.747011068</ele>
        <time>2015-02-04T10:41:44Z</time>
      </trkpt>
      <trkpt lat="45.68188" lon="6.02267">
        <ele>1342.873862278</ele>
        <time>2015-02-04T10:41:49Z</time>
      </trkpt>
      <trkpt lat="45.68195" lon="6.02279">
        <ele>1342.629456426</ele>
        <time>2015-02-04T10:41:54Z</time>
      </trkpt>
      <trkpt lat="45.68205" lon="6.02295">
        <ele>1343.048827703</ele>
        <time>2015-02-04T10:41:59Z</time>
      </trkpt>
      <trkpt lat="45.68212" lon="6.02312">
        <ele>1343.35926578</ele>
        <time>2015-02-04T10:42:04Z</time>
      </trkpt>
      <trkpt lat="45.68219" lon="6.02325">
        <ele>1343.565850099</ele>
        <time>2015-02-04T10:42:09Z</time>
      </trkpt>
      <trkpt lat="45.6823" lon="6.02342">
        <ele>1343.96180087</ele>
        <time>2015-02-04T10:42:14Z</time>
      </trkpt>
      <trkpt lat="45.68238" lon="6.02355">
        <ele>1344.529965499</ele>
        <time>2015-02-04T10:42:19Z</time>
      </trkpt>
      <trkpt lat="45.68247" lon="6.02367">
        <ele>1345.253961925</ele>
        <time>2015-02-04T10:42:24Z</time>
      </trkpt>
      <trkpt lat="45.68253" lon="6.0238">
        <ele>1345.974058251</ele>
        <time>2015-02-04T10:42:29Z</time>
      </trkpt>
      <trkpt lat="45.68263" lon="6.02392">
        <ele>1346.398171511</ele>
        <time>2015-02-04T10:42:34Z</time>
      </trkpt>
      <trkpt lat="45.68277" lon="6.02403">
        <ele>1346.112422529</ele>
        <time>2015-02-04T10:42:39Z</time>
      </trkpt>
      <trkpt lat="45.68294" lon="6.02413">
        <ele>1345.744174295</ele>
        <time>2015-02-04T10:42:44Z</time>
      </trkpt>
      <trkpt lat="45.68313" lon="6.02421">
        <ele>1345.298487149</ele>
        <time>2015-02-04T10:42:49Z</time>
      </trkpt>
      <trkpt lat="45.68329" lon="6.02439">
        <ele>1345.068528306</ele>
        <time>2015-02-04T10:42:54Z</time>
      </trkpt>
      <trkpt lat="45.68352" lon="6.0245">
        <ele>1344.893015851</ele>
        <time>2015-02-04T10:42:59Z</time>
      </trkpt>
      <trkpt lat="45.68371" lon="6.0247">
        <ele>1345.054740861</ele>
        <time>2015-02-04T10:43:04Z</time>
      </trkpt>
      <trkpt lat="45.6838" lon="6.02472">
        <ele>1344.661911398</ele>
        <time>2015-02-04T10:43:09Z</time>
      </trkpt>
      <trkpt lat="45.68421" lon="6.02519">
        <ele>1344.182865751</ele>
        <time>2015-02-04T10:43:24Z</time>
      </trkpt>
      <trkpt lat="45.68437" lon="6.02541">
        <ele>1343.703820103</ele>
        <time>2015-02-04T10:43:29Z</time>
      </trkpt>
      <trkpt lat="45.68456" lon="6.02545">
        <ele>1343.224774456</ele>
        <time>2015-02-04T10:43:34Z</time>
      </trkpt>
      <trkpt lat="45.6848" lon="6.02801">
        <ele>1342.745728809</ele>
        <time>2015-02-04T10:44:04Z</time>
      </trkpt>
      <trkpt lat="45.68473" lon="6.02842">
        <ele>1342.448021062</ele>
        <time>2015-02-04T10:44:09Z</time>
      </trkpt>
      <trkpt lat="45.68454" lon="6.02868">
        <ele>1342.496048642</ele>
        <time>2015-02-04T10:44:14Z</time>
      </trkpt>
      <trkpt lat="45.68442" lon="6.02885">
        <ele>1342.718417341</ele>
        <time>2015-02-04T10:44:19Z</time>
      </trkpt>
      <trkpt lat="45.68437" lon="6.02913">
        <ele>1343.099979869</ele>
        <time>2015-02-04T10:44:24Z</time>
      </trkpt>
      <trkpt lat="45.685" lon="6.03124">
        <ele>1343.770405775</ele>
        <time>2015-02-04T10:44:54Z</time>
      </trkpt>
      <trkpt lat="45.68488" lon="6.03134">
        <ele>1341.534451569</ele>
        <time>2015-02-04T10:44:59Z</time>
      </trkpt>
      <trkpt lat="45.68489" lon="6.03161">
        <ele>1339.204327915</ele>
        <time>2015-02-04T10:45:04Z</time>
      </trkpt>
      <trkpt lat="45.68486" lon="6.03181">
        <ele>1336.35956787</ele>
        <time>2015-02-04T10:45:09Z</time>
      </trkpt>
      <trkpt lat="45.68479" lon="6.03209">
        <ele>1333.044389184</ele>
        <time>2015-02-04T10:45:14Z</time>
      </trkpt>
      <trkpt lat="45.68466" lon="6.03255">
        <ele>1330.453991322</ele>
        <time>2015-02-04T10:45:19Z</time>
      </trkpt>
      <trkpt lat="45.68444" lon="6.03305">
        <ele>1329.693721489</ele>
        <time>2015-02-04T10:45:24Z</time>
      </trkpt>
      <trkpt lat="45.68421" lon="6.03324">
        <ele>1328.46791889</ele>
        <time>2015-02-04T10:45:29Z</time>
      </trkpt>
      <trkpt lat="45.68405" lon="6.03319">
        <ele>1326.812545824</ele>
        <time>2015-02-04T10:45:34Z</time>
      </trkpt>
      <trkpt lat="45.68386" lon="6.03313">
        <ele>1325.482656042</ele>
        <time>2015-02-04T10:45:39Z</time>
      </trkpt>
      <trkpt lat="45.68363" lon="6.03313">
        <ele>1324.023955331</ele>
        <time>2015-02-04T10:45:44Z</time>
      </trkpt>
      <trkpt lat="45.68338" lon="6.03297">
        <ele>1322.4481761</ele>
        <time>2015-02-04T10:45:49Z</time>
      </trkpt>
      <trkpt lat="45.68312" lon="6.03272">
        <ele>1321.48703609</ele>
        <time>2015-02-04T10:45:54Z</time>
      </trkpt>
      <trkpt lat="45.68294" lon="6.03241">
        <ele>1320.807917044</ele>
        <time>2015-02-04T10:45:59Z</time>
      </trkpt>
      <trkpt lat="45.68284" lon="6.03215">
        <ele>1319.381217421</ele>
        <time>2015-02-04T10:46:04Z</time>
      </trkpt>
      <trkpt lat="45.68273" lon="6.03185">
        <ele>1318.704960024</ele>
        <time>2015-02-04T10:46:09Z</time>
      </trkpt>
      <trkpt lat="45.68257" lon="6.03168">
        <ele>1318.579705604</ele>
        <time>2015-02-04T10:46:14Z</time>
      </trkpt>
      <trkpt lat="45.68225" lon="6.03168">
        <ele>1318.242619565</ele>
        <time>2015-02-04T10:46:19Z</time>
      </trkpt>
      <trkpt lat="45.68209" lon="6.03185">
        <ele>1317.708030704</ele>
        <time>2015-02-04T10:46:24Z</time>
      </trkpt>
      <trkpt lat="45.6818" lon="6.03182">
        <ele>1317.710302504</ele>
        <time>2015-02-04T10:46:29Z</time>
      </trkpt>
      <trkpt lat="45.68158" lon="6.03188">
        <ele>1317.05484281</ele>
        <time>2015-02-04T10:46:34Z</time>
      </trkpt>
      <trkpt lat="45.68148" lon="6.03208">
        <ele>1316.077772892</ele>
        <time>2015-02-04T10:46:39Z</time>
      </trkpt>
      <trkpt lat="45.68129" lon="6.03229">
        <ele>1314.803177526</ele>
        <time>2015-02-04T10:46:44Z</time>
      </trkpt>
      <trkpt lat="45.68113" lon="6.03236">
        <ele>1313.398300406</ele>
        <time>2015-02-04T10:46:49Z</time>
      </trkpt>
      <trkpt lat="45.68094" lon="6.03254">
        <ele>1312.162556621</ele>
        <time>2015-02-04T10:46:54Z</time>
      </trkpt>
      <trkpt lat="45.68077" lon="6.0328">
        <ele>1311.661094348</ele>
        <time>2015-02-04T10:46:59Z</time>
      </trkpt>
      <trkpt lat="45.68068" lon="6.03303">
        <ele>1311.118454307</ele>
        <time>2015-02-04T10:47:04Z</time>
      </trkpt>
      <trkpt lat="45.68062" lon="6.03318">
        <ele>1310.680913769</ele>
        <time>2015-02-04T10:47:09Z</time>
      </trkpt>
      <trkpt lat="45.68048" lon="6.0333">
        <ele>1309.763133736</ele>
        <time>2015-02-04T10:47:14Z</time>
      </trkpt>
      <trkpt lat="45.68028" lon="6.03333">
        <ele>1308.688779832</ele>
        <time>2015-02-04T10:47:19Z</time>
      </trkpt>
      <trkpt lat="45.68009" lon="6.03322">
        <ele>1307.902279722</ele>
        <time>2015-02-04T10:47:24Z</time>
      </trkpt>
      <trkpt lat="45.67987" lon="6.03313">
        <ele>1307.238148778</ele>
        <time>2015-02-04T10:47:29Z</time>
      </trkpt>
      <trkpt lat="45.6797" lon="6.03312">
        <ele>1307.839712339</ele>
        <time>2015-02-04T10:47:34Z</time>
      </trkpt>
      <trkpt lat="45.67962" lon="6.03311">
        <ele>1307.839712339</ele>
        <time>2015-02-04T10:47:39Z</time>
      </trkpt>
      <trkpt lat="45.67961" lon="6.03311">
        <ele>1307.448189709</ele>
        <time>2015-02-04T10:47:44Z</time>
      </trkpt>
      <trkpt lat="45.6796" lon="6.03311">
        <ele>1307.448189709</ele>
        <time>2015-02-04T10:47:49Z</time>
      </trkpt>
      <trkpt lat="45.6796" lon="6.03311">
        <ele>1307.448189709</ele>
        <time>2015-02-04T10:47:54Z</time>
      </trkpt>
      <trkpt lat="45.6796" lon="6.03311">
        <ele>1307.448189709</ele>
        <time>2015-02-04T10:47:59Z</time>
      </trkpt>
      <trkpt lat="45.6796" lon="6.03311">
        <ele>1307.448189709</ele>
        <time>2015-02-04T10:48:04Z</time>
      </trkpt>
      <trkpt lat="45.67961" lon="6.03311">
        <ele>1307.448189709</ele>
        <time>2015-02-04T10:48:09Z</time>
      </trkpt>
      <trkpt lat="45.67961" lon="6.03311">
        <ele>1307.448189709</ele>
        <time>2015-02-04T10:48:14Z</time>
      </trkpt>
      <trkpt lat="45.6796" lon="6.03311">
        <ele>1307.448189709</ele>
        <time>2015-02-04T10:48:19Z</time>
      </trkpt>
      <trkpt lat="45.6796" lon="6.03311">
        <ele>1307.448189709</ele>
        <time>2015-02-04T10:48:24Z</time>
      </trkpt>
      <trkpt lat="45.6796" lon="6.03311">
        <ele>1307.448189709</ele>
        <time>2015-02-04T10:48:29Z</time>
      </trkpt>
      <trkpt lat="45.6796" lon="6.03311">
        <ele>1307.448189709</ele>
        <time>2015-02-04T10:48:34Z</time>
      </trkpt>
      <trkpt lat="45.6796" lon="6.03311">
        <ele>1307.448189709</ele>
        <time>2015-02-04T10:48:39Z</time>
      </trkpt>
      <trkpt lat="45.67957" lon="6.03313">
        <ele>1307.448189709</ele>
        <time>2015-02-04T10:48:44Z</time>
      </trkpt>
      <trkpt lat="45.67965" lon="6.03329">
        <ele>1306.85574711</ele>
        <time>2015-02-04T10:48:49Z</time>
      </trkpt>
      <trkpt lat="45.67983" lon="6.03358">
        <ele>1306.364594038</ele>
        <time>2015-02-04T10:48:54Z</time>
      </trkpt>
      <trkpt lat="45.68003" lon="6.03376">
        <ele>1305.389797883</ele>
        <time>2015-02-04T10:48:59Z</time>
      </trkpt>
      <trkpt lat="45.68033" lon="6.03385">
        <ele>1304.255430216</ele>
        <time>2015-02-04T10:49:04Z</time>
      </trkpt>
      <trkpt lat="45.68057" lon="6.03387">
        <ele>1302.829879606</ele>
        <time>2015-02-04T10:49:09Z</time>
      </trkpt>
      <trkpt lat="45.68074" lon="6.03381">
        <ele>1301.568471377</ele>
        <time>2015-02-04T10:49:14Z</time>
      </trkpt>
      <trkpt lat="45.68094" lon="6.03375">
        <ele>1299.883846369</ele>
        <time>2015-02-04T10:49:19Z</time>
      </trkpt>
      <trkpt lat="45.68124" lon="6.03394">
        <ele>1298.529978637</ele>
        <time>2015-02-04T10:49:24Z</time>
      </trkpt>
      <trkpt lat="45.68154" lon="6.0345">
        <ele>1297.483965625</ele>
        <time>2015-02-04T10:49:29Z</time>
      </trkpt>
      <trkpt lat="45.68181" lon="6.03491">
        <ele>1296.147268756</ele>
        <time>2015-02-04T10:49:34Z</time>
      </trkpt>
      <trkpt lat="45.682" lon="6.03519">
        <ele>1294.974898734</ele>
        <time>2015-02-04T10:49:39Z</time>
      </trkpt>
      <trkpt lat="45.68239" lon="6.0356">
        <ele>1294.393209753</ele>
        <time>2015-02-04T10:49:44Z</time>
      </trkpt>
      <trkpt lat="45.68272" lon="6.03586">
        <ele>1293.811520772</ele>
        <time>2015-02-04T10:49:49Z</time>
      </trkpt>
      <trkpt lat="45.68301" lon="6.03609">
        <ele>1292.513168994</ele>
        <time>2015-02-04T10:49:54Z</time>
      </trkpt>
      <trkpt lat="45.68318" lon="6.0363">
        <ele>1291.235035798</ele>
        <time>2015-02-04T10:49:59Z</time>
      </trkpt>
      <trkpt lat="45.68339" lon="6.03646">
        <ele>1290.26494824</ele>
        <time>2015-02-04T10:50:04Z</time>
      </trkpt>
      <trkpt lat="45.68365" lon="6.03681">
        <ele>1289.148148884</ele>
        <time>2015-02-04T10:50:09Z</time>
      </trkpt>
      <trkpt lat="45.68364" lon="6.03718">
        <ele>1287.46367594</ele>
        <time>2015-02-04T10:50:14Z</time>
      </trkpt>
      <trkpt lat="45.68365" lon="6.03734">
        <ele>1284.678946637</ele>
        <time>2015-02-04T10:50:19Z</time>
      </trkpt>
      <trkpt lat="45.68364" lon="6.03757">
        <ele>1282.177003157</ele>
        <time>2015-02-04T10:50:24Z</time>
      </trkpt>
      <trkpt lat="45.68367" lon="6.03774">
        <ele>1279.797345334</ele>
        <time>2015-02-04T10:50:29Z</time>
      </trkpt>
      <trkpt lat="45.68376" lon="6.03794">
        <ele>1277.679094775</ele>
        <time>2015-02-04T10:50:34Z</time>
      </trkpt>
      <trkpt lat="45.68388" lon="6.03809">
        <ele>1275.229806699</ele>
        <time>2015-02-04T10:50:39Z</time>
      </trkpt>
      <trkpt lat="45.684" lon="6.03831">
        <ele>1272.766088858</ele>
        <time>2015-02-04T10:50:44Z</time>
      </trkpt>
      <trkpt lat="45.68408" lon="6.03858">
        <ele>1270.004815012</ele>
        <time>2015-02-04T10:50:49Z</time>
      </trkpt>
      <trkpt lat="45.68417" lon="6.03892">
        <ele>1267.693192813</ele>
        <time>2015-02-04T10:50:54Z</time>
      </trkpt>
      <trkpt lat="45.68428" lon="6.03915">
        <ele>1265.081081759</ele>
        <time>2015-02-04T10:50:59Z</time>
      </trkpt>
      <trkpt lat="45.68448" lon="6.03945">
        <ele>1262.482977415</ele>
        <time>2015-02-04T10:51:04Z</time>
      </trkpt>
      <trkpt lat="45.68459" lon="6.03967">
        <ele>1259.757803392</ele>
        <time>2015-02-04T10:51:09Z</time>
      </trkpt>
      <trkpt lat="45.68481" lon="6.04011">
        <ele>1257.207436008</ele>
        <time>2015-02-04T10:51:14Z</time>
      </trkpt>
      <trkpt lat="45.685" lon="6.04053">
        <ele>1254.822757969</ele>
        <time>2015-02-04T10:51:19Z</time>
      </trkpt>
      <trkpt lat="45.68517" lon="6.0411">
        <ele>1252.882971959</ele>
        <time>2015-02-04T10:51:24Z</time>
      </trkpt>
      <trkpt lat="45.6853" lon="6.04127">
        <ele>1250.924858117</ele>
        <time>2015-02-04T10:51:29Z</time>
      </trkpt>
      <trkpt lat="45.68553" lon="6.04161">
        <ele>1248.519167967</ele>
        <time>2015-02-04T10:51:34Z</time>
      </trkpt>
      <trkpt lat="45.68569" lon="6.04185">
        <ele>1246.134001455</ele>
        <time>2015-02-04T10:51:39Z</time>
      </trkpt>
      <trkpt lat="45.68588" lon="6.04223">
        <ele>1243.914686518</ele>
        <time>2015-02-04T10:51:44Z</time>
      </trkpt>
      <trkpt lat="45.68599" lon="6.04251">
        <ele>1241.995305892</ele>
        <time>2015-02-04T10:51:49Z</time>
      </trkpt>
      <trkpt lat="45.68624" lon="6.04287">
        <ele>1240.355038087</ele>
        <time>2015-02-04T10:51:54Z</time>
      </trkpt>
      <trkpt lat="45.68654" lon="6.04309">
        <ele>1238.68548749</ele>
        <time>2015-02-04T10:51:59Z</time>
      </trkpt>
      <trkpt lat="45.68693" lon="6.04327">
        <ele>1236.700901473</ele>
        <time>2015-02-04T10:52:04Z</time>
      </trkpt>
      <trkpt lat="45.68715" lon="6.04376">
        <ele>1234.569646915</ele>
        <time>2015-02-04T10:52:09Z</time>
      </trkpt>
      <trkpt lat="45.68742" lon="6.04408">
        <ele>1231.871603246</ele>
        <time>2015-02-04T10:52:14Z</time>
      </trkpt>
      <trkpt lat="45.68771" lon="6.04425">
        <ele>1229.660129808</ele>
        <time>2015-02-04T10:52:19Z</time>
      </trkpt>
      <trkpt lat="45.68797" lon="6.0445">
        <ele>1227.324535821</ele>
        <time>2015-02-04T10:52:24Z</time>
      </trkpt>
      <trkpt lat="45.68818" lon="6.04471">
        <ele>1225.452147593</ele>
        <time>2015-02-04T10:52:29Z</time>
      </trkpt>
      <trkpt lat="45.68855" lon="6.04503">
        <ele>1223.432878159</ele>
        <time>2015-02-04T10:52:34Z</time>
      </trkpt>
      <trkpt lat="45.68882" lon="6.04518">
        <ele>1221.134125627</ele>
        <time>2015-02-04T10:52:39Z</time>
      </trkpt>
      <trkpt lat="45.68918" lon="6.0455">
        <ele>1218.866072116</ele>
        <time>2015-02-04T10:52:44Z</time>
      </trkpt>
      <trkpt lat="45.68929" lon="6.04576">
        <ele>1216.483622287</ele>
        <time>2015-02-04T10:52:49Z</time>
      </trkpt>
      <trkpt lat="45.68948" lon="6.04626">
        <ele>1213.564366617</ele>
        <time>2015-02-04T10:52:54Z</time>
      </trkpt>
      <trkpt lat="45.68962" lon="6.04641">
        <ele>1211.015360759</ele>
        <time>2015-02-04T10:52:59Z</time>
      </trkpt>
      <trkpt lat="45.68968" lon="6.04651">
        <ele>1208.811251878</ele>
        <time>2015-02-04T10:53:04Z</time>
      </trkpt>
      <trkpt lat="45.68976" lon="6.04658">
        <ele>1206.92751192</ele>
        <time>2015-02-04T10:53:09Z</time>
      </trkpt>
      <trkpt lat="45.68984" lon="6.04659">
        <ele>1206.92751192</ele>
        <time>2015-02-04T10:53:14Z</time>
      </trkpt>
      <trkpt lat="45.68992" lon="6.04661">
        <ele>1205.052225741</ele>
        <time>2015-02-04T10:53:19Z</time>
      </trkpt>
      <trkpt lat="45.68997" lon="6.04665">
        <ele>1205.052225741</ele>
        <time>2015-02-04T10:53:24Z</time>
      </trkpt>
      <trkpt lat="45.69006" lon="6.04662">
        <ele>1203.472749063</ele>
        <time>2015-02-04T10:53:29Z</time>
      </trkpt>
      <trkpt lat="45.69013" lon="6.0466">
        <ele>1203.472749063</ele>
        <time>2015-02-04T10:53:34Z</time>
      </trkpt>
      <trkpt lat="45.69019" lon="6.04662">
        <ele>1202.454442585</ele>
        <time>2015-02-04T10:53:39Z</time>
      </trkpt>
      <trkpt lat="45.69032" lon="6.04667">
        <ele>1201.665107473</ele>
        <time>2015-02-04T10:53:44Z</time>
      </trkpt>
      <trkpt lat="45.69041" lon="6.04671">
        <ele>1201.665107473</ele>
        <time>2015-02-04T10:53:49Z</time>
      </trkpt>
      <trkpt lat="45.69049" lon="6.04672">
        <ele>1201.660937057</ele>
        <time>2015-02-04T10:53:54Z</time>
      </trkpt>
      <trkpt lat="45.69057" lon="6.04677">
        <ele>1201.660937057</ele>
        <time>2015-02-04T10:53:59Z</time>
      </trkpt>
      <trkpt lat="45.69071" lon="6.04686">
        <ele>1202.666822183</ele>
        <time>2015-02-04T10:54:04Z</time>
      </trkpt>
      <trkpt lat="45.6908" lon="6.04692">
        <ele>1203.735409511</ele>
        <time>2015-02-04T10:54:09Z</time>
      </trkpt>
      <trkpt lat="45.69088" lon="6.04699">
        <ele>1204.709338008</ele>
        <time>2015-02-04T10:54:14Z</time>
      </trkpt>
      <trkpt lat="45.69098" lon="6.04708">
        <ele>1206.163671589</ele>
        <time>2015-02-04T10:54:19Z</time>
      </trkpt>
      <trkpt lat="45.69109" lon="6.04711">
        <ele>1207.621171966</ele>
        <time>2015-02-04T10:54:24Z</time>
      </trkpt>
      <trkpt lat="45.69117" lon="6.04712">
        <ele>1207.621171966</ele>
        <time>2015-02-04T10:54:29Z</time>
      </trkpt>
      <trkpt lat="45.69126" lon="6.04719">
        <ele>1209.072073081</ele>
        <time>2015-02-04T10:54:34Z</time>
      </trkpt>
      <trkpt lat="45.69132" lon="6.04721">
        <ele>1209.072073081</ele>
        <time>2015-02-04T10:54:39Z</time>
      </trkpt>
      <trkpt lat="45.69141" lon="6.04727">
        <ele>1210.939790306</ele>
        <time>2015-02-04T10:54:44Z</time>
      </trkpt>
      <trkpt lat="45.69149" lon="6.04729">
        <ele>1210.939790306</ele>
        <time>2015-02-04T10:54:49Z</time>
      </trkpt>
      <trkpt lat="45.69156" lon="6.04732">
        <ele>1213.327377662</ele>
        <time>2015-02-04T10:54:54Z</time>
      </trkpt>
      <trkpt lat="45.69162" lon="6.04731">
        <ele>1213.327377662</ele>
        <time>2015-02-04T10:54:59Z</time>
      </trkpt>
      <trkpt lat="45.69171" lon="6.04726">
        <ele>1214.743791637</ele>
        <time>2015-02-04T10:55:04Z</time>
      </trkpt>
      <trkpt lat="45.69179" lon="6.04722">
        <ele>1214.743791637</ele>
        <time>2015-02-04T10:55:09Z</time>
      </trkpt>
      <trkpt lat="45.69187" lon="6.0472">
        <ele>1216.548529711</ele>
        <time>2015-02-04T10:55:14Z</time>
      </trkpt>
      <trkpt lat="45.69196" lon="6.04721">
        <ele>1218.991545519</ele>
        <time>2015-02-04T10:55:19Z</time>
      </trkpt>
      <trkpt lat="45.69208" lon="6.0472">
        <ele>1221.438182128</ele>
        <time>2015-02-04T10:55:24Z</time>
      </trkpt>
      <trkpt lat="45.69218" lon="6.04722">
        <ele>1223.73295139</ele>
        <time>2015-02-04T10:55:29Z</time>
      </trkpt>
      <trkpt lat="45.69226" lon="6.04726">
        <ele>1223.73295139</ele>
        <time>2015-02-04T10:55:34Z</time>
      </trkpt>
      <trkpt lat="45.69238" lon="6.04733">
        <ele>1226.164786113</ele>
        <time>2015-02-04T10:55:39Z</time>
      </trkpt>
      <trkpt lat="45.69249" lon="6.04736">
        <ele>1228.424818421</ele>
        <time>2015-02-04T10:55:44Z</time>
      </trkpt>
      <trkpt lat="45.69255" lon="6.04735">
        <ele>1228.424818421</ele>
        <time>2015-02-04T10:55:49Z</time>
      </trkpt>
      <trkpt lat="45.69263" lon="6.04731">
        <ele>1230.515838937</ele>
        <time>2015-02-04T10:55:54Z</time>
      </trkpt>
      <trkpt lat="45.69269" lon="6.04722">
        <ele>1230.515838937</ele>
        <time>2015-02-04T10:55:59Z</time>
      </trkpt>
      <trkpt lat="45.69279" lon="6.04718">
        <ele>1233.161738582</ele>
        <time>2015-02-04T10:56:04Z</time>
      </trkpt>
      <trkpt lat="45.69285" lon="6.04716">
        <ele>1233.161738582</ele>
        <time>2015-02-04T10:56:09Z</time>
      </trkpt>
      <trkpt lat="45.69292" lon="6.04714">
        <ele>1235.014401656</ele>
        <time>2015-02-04T10:56:14Z</time>
      </trkpt>
      <trkpt lat="45.69301" lon="6.04706">
        <ele>1236.55659162</ele>
        <time>2015-02-04T10:56:19Z</time>
      </trkpt>
      <trkpt lat="45.69309" lon="6.04698">
        <ele>1237.80443616</ele>
        <time>2015-02-04T10:56:24Z</time>
      </trkpt>
      <trkpt lat="45.69313" lon="6.04692">
        <ele>1237.80443616</ele>
        <time>2015-02-04T10:56:29Z</time>
      </trkpt>
      <trkpt lat="45.69319" lon="6.04678">
        <ele>1239.062215882</ele>
        <time>2015-02-04T10:56:34Z</time>
      </trkpt>
      <trkpt lat="45.69325" lon="6.04668">
        <ele>1240.035671863</ele>
        <time>2015-02-04T10:56:39Z</time>
      </trkpt>
      <trkpt lat="45.69331" lon="6.04658">
        <ele>1240.309125583</ele>
        <time>2015-02-04T10:56:44Z</time>
      </trkpt>
      <trkpt lat="45.69337" lon="6.04654">
        <ele>1240.309125583</ele>
        <time>2015-02-04T10:56:49Z</time>
      </trkpt>
      <trkpt lat="45.69342" lon="6.04655">
        <ele>1240.940778303</ele>
        <time>2015-02-04T10:56:54Z</time>
      </trkpt>
      <trkpt lat="45.69351" lon="6.04662">
        <ele>1241.469237998</ele>
        <time>2015-02-04T10:56:59Z</time>
      </trkpt>
      <trkpt lat="45.6936" lon="6.04667">
        <ele>1242.188098039</ele>
        <time>2015-02-04T10:57:04Z</time>
      </trkpt>
      <trkpt lat="45.69368" lon="6.0467">
        <ele>1242.188098039</ele>
        <time>2015-02-04T10:57:09Z</time>
      </trkpt>
      <trkpt lat="45.69376" lon="6.0467">
        <ele>1242.792640423</ele>
        <time>2015-02-04T10:57:14Z</time>
      </trkpt>
      <trkpt lat="45.69384" lon="6.04667">
        <ele>1242.792640423</ele>
        <time>2015-02-04T10:57:19Z</time>
      </trkpt>
      <trkpt lat="45.69393" lon="6.0466">
        <ele>1243.433409284</ele>
        <time>2015-02-04T10:57:24Z</time>
      </trkpt>
      <trkpt lat="45.69397" lon="6.04647">
        <ele>1244.250001222</ele>
        <time>2015-02-04T10:57:29Z</time>
      </trkpt>
      <trkpt lat="45.69404" lon="6.04644">
        <ele>1244.250001222</ele>
        <time>2015-02-04T10:57:34Z</time>
      </trkpt>
      <trkpt lat="45.69412" lon="6.04642">
        <ele>1244.795022702</ele>
        <time>2015-02-04T10:57:39Z</time>
      </trkpt>
      <trkpt lat="45.69421" lon="6.04644">
        <ele>1244.795022702</ele>
        <time>2015-02-04T10:57:44Z</time>
      </trkpt>
      <trkpt lat="45.69427" lon="6.04648">
        <ele>1244.943120957</ele>
        <time>2015-02-04T10:57:49Z</time>
      </trkpt>
      <trkpt lat="45.69441" lon="6.04656">
        <ele>1245.732335296</ele>
        <time>2015-02-04T10:57:54Z</time>
      </trkpt>
      <trkpt lat="45.69446" lon="6.04663">
        <ele>1245.732335296</ele>
        <time>2015-02-04T10:57:59Z</time>
      </trkpt>
      <trkpt lat="45.69456" lon="6.0467">
        <ele>1246.825823258</ele>
        <time>2015-02-04T10:58:04Z</time>
      </trkpt>
      <trkpt lat="45.6946" lon="6.04676">
        <ele>1246.825823258</ele>
        <time>2015-02-04T10:58:09Z</time>
      </trkpt>
      <trkpt lat="45.69469" lon="6.04685">
        <ele>1247.910794944</ele>
        <time>2015-02-04T10:58:14Z</time>
      </trkpt>
      <trkpt lat="45.69478" lon="6.04699">
        <ele>1249.274061197</ele>
        <time>2015-02-04T10:58:19Z</time>
      </trkpt>
      <trkpt lat="45.69483" lon="6.04711">
        <ele>1250.748399551</ele>
        <time>2015-02-04T10:58:24Z</time>
      </trkpt>
      <trkpt lat="45.69488" lon="6.04722">
        <ele>1252.322817266</ele>
        <time>2015-02-04T10:58:29Z</time>
      </trkpt>
      <trkpt lat="45.69498" lon="6.04738">
        <ele>1253.986991609</ele>
        <time>2015-02-04T10:58:34Z</time>
      </trkpt>
      <trkpt lat="45.69504" lon="6.04741">
        <ele>1253.986991609</ele>
        <time>2015-02-04T10:58:39Z</time>
      </trkpt>
      <trkpt lat="45.6951" lon="6.04741">
        <ele>1255.298913335</ele>
        <time>2015-02-04T10:58:44Z</time>
      </trkpt>
      <trkpt lat="45.69516" lon="6.04737">
        <ele>1255.298913335</ele>
        <time>2015-02-04T10:58:49Z</time>
      </trkpt>
      <trkpt lat="45.69524" lon="6.04732">
        <ele>1256.1383902</ele>
        <time>2015-02-04T10:58:54Z</time>
      </trkpt>
      <trkpt lat="45.6953" lon="6.04732">
        <ele>1256.1383902</ele>
        <time>2015-02-04T10:58:59Z</time>
      </trkpt>
      <trkpt lat="45.6954" lon="6.04724">
        <ele>1256.683738233</ele>
        <time>2015-02-04T10:59:04Z</time>
      </trkpt>
      <trkpt lat="45.69546" lon="6.04719">
        <ele>1256.683738233</ele>
        <time>2015-02-04T10:59:09Z</time>
      </trkpt>
      <trkpt lat="45.69554" lon="6.04715">
        <ele>1256.668789113</ele>
        <time>2015-02-04T10:59:14Z</time>
      </trkpt>
      <trkpt lat="45.69562" lon="6.04715">
        <ele>1256.668789113</ele>
        <time>2015-02-04T10:59:19Z</time>
      </trkpt>
      <trkpt lat="45.69573" lon="6.04716">
        <ele>1257.145612432</ele>
        <time>2015-02-04T10:59:24Z</time>
      </trkpt>
      <trkpt lat="45.69581" lon="6.04718">
        <ele>1257.145612432</ele>
        <time>2015-02-04T10:59:29Z</time>
      </trkpt>
      <trkpt lat="45.69594" lon="6.0472">
        <ele>1257.64660394</ele>
        <time>2015-02-04T10:59:34Z</time>
      </trkpt>
      <trkpt lat="45.69605" lon="6.04715">
        <ele>1258.314977124</ele>
        <time>2015-02-04T10:59:39Z</time>
      </trkpt>
      <trkpt lat="45.69612" lon="6.0471">
        <ele>1258.314977124</ele>
        <time>2015-02-04T10:59:44Z</time>
      </trkpt>
      <trkpt lat="45.69621" lon="6.04703">
        <ele>1258.274257252</ele>
        <time>2015-02-04T10:59:49Z</time>
      </trkpt>
      <trkpt lat="45.6963" lon="6.04696">
        <ele>1258.155525185</ele>
        <time>2015-02-04T10:59:54Z</time>
      </trkpt>
      <trkpt lat="45.69636" lon="6.04691">
        <ele>1258.155525185</ele>
        <time>2015-02-04T10:59:59Z</time>
      </trkpt>
      <trkpt lat="45.69647" lon="6.04686">
        <ele>1258.111446744</ele>
        <time>2015-02-04T11:00:04Z</time>
      </trkpt>
      <trkpt lat="45.69657" lon="6.04684">
        <ele>1258.283310845</ele>
        <time>2015-02-04T11:00:09Z</time>
      </trkpt>
      <trkpt lat="45.69667" lon="6.0468">
        <ele>1258.513235521</ele>
        <time>2015-02-04T11:00:14Z</time>
      </trkpt>
      <trkpt lat="45.69673" lon="6.04678">
        <ele>1258.513235521</ele>
        <time>2015-02-04T11:00:19Z</time>
      </trkpt>
      <trkpt lat="45.69683" lon="6.04668">
        <ele>1258.798911592</ele>
        <time>2015-02-04T11:00:24Z</time>
      </trkpt>
      <trkpt lat="45.69691" lon="6.0466">
        <ele>1258.993950111</ele>
        <time>2015-02-04T11:00:29Z</time>
      </trkpt>
      <trkpt lat="45.69693" lon="6.04654">
        <ele>1258.993950111</ele>
        <time>2015-02-04T11:00:34Z</time>
      </trkpt>
      <trkpt lat="45.69692" lon="6.04647">
        <ele>1259.395314634</ele>
        <time>2015-02-04T11:00:39Z</time>
      </trkpt>
      <trkpt lat="45.69688" lon="6.04644">
        <ele>1259.395314634</ele>
        <time>2015-02-04T11:00:44Z</time>
      </trkpt>
      <trkpt lat="45.69684" lon="6.04641">
        <ele>1259.412912285</ele>
        <time>2015-02-04T11:00:49Z</time>
      </trkpt>
      <trkpt lat="45.69678" lon="6.04644">
        <ele>1259.412912285</ele>
        <time>2015-02-04T11:00:54Z</time>
      </trkpt>
      <trkpt lat="45.69673" lon="6.04645">
        <ele>1260.086296124</ele>
        <time>2015-02-04T11:00:59Z</time>
      </trkpt>
      <trkpt lat="45.69664" lon="6.0465">
        <ele>1261.51214285</ele>
        <time>2015-02-04T11:01:04Z</time>
      </trkpt>
      <trkpt lat="45.69658" lon="6.04654">
        <ele>1261.51214285</ele>
        <time>2015-02-04T11:01:09Z</time>
      </trkpt>
      <trkpt lat="45.6965" lon="6.04652">
        <ele>1262.76913204</ele>
        <time>2015-02-04T11:01:14Z</time>
      </trkpt>
      <trkpt lat="45.69645" lon="6.04648">
        <ele>1262.76913204</ele>
        <time>2015-02-04T11:01:19Z</time>
      </trkpt>
      <trkpt lat="45.69638" lon="6.04641">
        <ele>1263.292312136</ele>
        <time>2015-02-04T11:01:24Z</time>
      </trkpt>
      <trkpt lat="45.69631" lon="6.04634">
        <ele>1263.292312136</ele>
        <time>2015-02-04T11:01:29Z</time>
      </trkpt>
      <trkpt lat="45.69617" lon="6.04622">
        <ele>1264.433731119</ele>
        <time>2015-02-04T11:01:34Z</time>
      </trkpt>
      <trkpt lat="45.69611" lon="6.04618">
        <ele>1264.433731119</ele>
        <time>2015-02-04T11:01:39Z</time>
      </trkpt>
      <trkpt lat="45.69605" lon="6.04613">
        <ele>1265.426821733</ele>
        <time>2015-02-04T11:01:44Z</time>
      </trkpt>
      <trkpt lat="45.69597" lon="6.04607">
        <ele>1265.426821733</ele>
        <time>2015-02-04T11:01:49Z</time>
      </trkpt>
      <trkpt lat="45.69588" lon="6.04602">
        <ele>1267.002853743</ele>
        <time>2015-02-04T11:01:54Z</time>
      </trkpt>
      <trkpt lat="45.69585" lon="6.04599">
        <ele>1267.002853743</ele>
        <time>2015-02-04T11:01:59Z</time>
      </trkpt>
      <trkpt lat="45.69578" lon="6.04589">
        <ele>1268.540742232</ele>
        <time>2015-02-04T11:02:04Z</time>
      </trkpt>
      <trkpt lat="45.69574" lon="6.04579">
        <ele>1268.540742232</ele>
        <time>2015-02-04T11:02:09Z</time>
      </trkpt>
      <trkpt lat="45.69574" lon="6.04569">
        <ele>1269.753359022</ele>
        <time>2015-02-04T11:02:14Z</time>
      </trkpt>
      <trkpt lat="45.69571" lon="6.04555">
        <ele>1271.096142893</ele>
        <time>2015-02-04T11:02:19Z</time>
      </trkpt>
      <trkpt lat="45.69565" lon="6.04539">
        <ele>1272.702499153</ele>
        <time>2015-02-04T11:02:24Z</time>
      </trkpt>
      <trkpt lat="45.69559" lon="6.04528">
        <ele>1274.407085448</ele>
        <time>2015-02-04T11:02:29Z</time>
      </trkpt>
      <trkpt lat="45.69554" lon="6.04519">
        <ele>1274.407085448</ele>
        <time>2015-02-04T11:02:34Z</time>
      </trkpt>
      <trkpt lat="45.69552" lon="6.04513">
        <ele>1275.48000183</ele>
        <time>2015-02-04T11:02:39Z</time>
      </trkpt>
      <trkpt lat="45.69551" lon="6.04506">
        <ele>1275.48000183</ele>
        <time>2015-02-04T11:02:44Z</time>
      </trkpt>
      <trkpt lat="45.69551" lon="6.04495">
        <ele>1275.967312427</ele>
        <time>2015-02-04T11:02:49Z</time>
      </trkpt>
      <trkpt lat="45.69552" lon="6.04485">
        <ele>1275.967312427</ele>
        <time>2015-02-04T11:02:54Z</time>
      </trkpt>
      <trkpt lat="45.69553" lon="6.04479">
        <ele>1276.057468809</ele>
        <time>2015-02-04T11:02:59Z</time>
      </trkpt>
      <trkpt lat="45.69555" lon="6.04464">
        <ele>1275.926206357</ele>
        <time>2015-02-04T11:03:04Z</time>
      </trkpt>
      <trkpt lat="45.69559" lon="6.04453">
        <ele>1275.926206357</ele>
        <time>2015-02-04T11:03:09Z</time>
      </trkpt>
      <trkpt lat="45.69562" lon="6.04436">
        <ele>1276.601646821</ele>
        <time>2015-02-04T11:03:14Z</time>
      </trkpt>
      <trkpt lat="45.69567" lon="6.04432">
        <ele>1276.601646821</ele>
        <time>2015-02-04T11:03:19Z</time>
      </trkpt>
      <trkpt lat="45.69575" lon="6.04416">
        <ele>1277.30479125</ele>
        <time>2015-02-04T11:03:24Z</time>
      </trkpt>
      <trkpt lat="45.69579" lon="6.04404">
        <ele>1277.746117477</ele>
        <time>2015-02-04T11:03:29Z</time>
      </trkpt>
      <trkpt lat="45.69584" lon="6.04382">
        <ele>1279.099211455</ele>
        <time>2015-02-04T11:03:34Z</time>
      </trkpt>
      <trkpt lat="45.69591" lon="6.04365">
        <ele>1280.431327597</ele>
        <time>2015-02-04T11:03:39Z</time>
      </trkpt>
      <trkpt lat="45.69598" lon="6.04349">
        <ele>1281.598848215</ele>
        <time>2015-02-04T11:03:44Z</time>
      </trkpt>
      <trkpt lat="45.69608" lon="6.04339">
        <ele>1282.613274542</ele>
        <time>2015-02-04T11:03:49Z</time>
      </trkpt>
      <trkpt lat="45.69612" lon="6.04328">
        <ele>1282.613274542</ele>
        <time>2015-02-04T11:03:54Z</time>
      </trkpt>
      <trkpt lat="45.69622" lon="6.04314">
        <ele>1283.197467476</ele>
        <time>2015-02-04T11:03:59Z</time>
      </trkpt>
      <trkpt lat="45.69633" lon="6.04309">
        <ele>1282.95173821</ele>
        <time>2015-02-04T11:04:04Z</time>
      </trkpt>
      <trkpt lat="45.69639" lon="6.04297">
        <ele>1282.805079997</ele>
        <time>2015-02-04T11:04:09Z</time>
      </trkpt>
      <trkpt lat="45.69646" lon="6.0429">
        <ele>1282.805079997</ele>
        <time>2015-02-04T11:04:14Z</time>
      </trkpt>
      <trkpt lat="45.69656" lon="6.04286">
        <ele>1281.600393248</ele>
        <time>2015-02-04T11:04:19Z</time>
      </trkpt>
      <trkpt lat="45.69669" lon="6.04265">
        <ele>1281.150745084</ele>
        <time>2015-02-04T11:04:24Z</time>
      </trkpt>
      <trkpt lat="45.69675" lon="6.04256">
        <ele>1281.150745084</ele>
        <time>2015-02-04T11:04:29Z</time>
      </trkpt>
      <trkpt lat="45.69683" lon="6.04237">
        <ele>1280.539861266</ele>
        <time>2015-02-04T11:04:34Z</time>
      </trkpt>
      <trkpt lat="45.69689" lon="6.04231">
        <ele>1280.539861266</ele>
        <time>2015-02-04T11:04:39Z</time>
      </trkpt>
      <trkpt lat="45.69693" lon="6.04232">
        <ele>1279.351515347</ele>
        <time>2015-02-04T11:04:44Z</time>
      </trkpt>
      <trkpt lat="45.69695" lon="6.04232">
        <ele>1279.351515347</ele>
        <time>2015-02-04T11:04:49Z</time>
      </trkpt>
      <trkpt lat="45.69697" lon="6.04231">
        <ele>1279.351515347</ele>
        <time>2015-02-04T11:04:54Z</time>
      </trkpt>
      <trkpt lat="45.69697" lon="6.04231">
        <ele>1279.351515347</ele>
        <time>2015-02-04T11:04:59Z</time>
      </trkpt>
      <trkpt lat="45.69697" lon="6.04231">
        <ele>1279.351515347</ele>
        <time>2015-02-04T11:05:04Z</time>
      </trkpt>
      <trkpt lat="45.69698" lon="6.04229">
        <ele>1279.351515347</ele>
        <time>2015-02-04T11:05:09Z</time>
      </trkpt>
      <trkpt lat="45.69702" lon="6.04225">
        <ele>1278.498619102</ele>
        <time>2015-02-04T11:05:14Z</time>
      </trkpt>
      <trkpt lat="45.69703" lon="6.04224">
        <ele>1278.498619102</ele>
        <time>2015-02-04T11:05:19Z</time>
      </trkpt>
      <trkpt lat="45.69703" lon="6.04223">
        <ele>1278.498619102</ele>
        <time>2015-02-04T11:05:24Z</time>
      </trkpt>
      <trkpt lat="45.69703" lon="6.04223">
        <ele>1278.498619102</ele>
        <time>2015-02-04T11:05:29Z</time>
      </trkpt>
      <trkpt lat="45.69703" lon="6.04223">
        <ele>1278.498619102</ele>
        <time>2015-02-04T11:05:34Z</time>
      </trkpt>
      <trkpt lat="45.69705" lon="6.04222">
        <ele>1278.498619102</ele>
        <time>2015-02-04T11:05:39Z</time>
      </trkpt>
      <trkpt lat="45.69703" lon="6.04202">
        <ele>1278.393681109</ele>
        <time>2015-02-04T11:05:44Z</time>
      </trkpt>
      <trkpt lat="45.69697" lon="6.0419">
        <ele>1278.40795688</ele>
        <time>2015-02-04T11:05:49Z</time>
      </trkpt>
      <trkpt lat="45.69688" lon="6.04176">
        <ele>1278.967254838</ele>
        <time>2015-02-04T11:05:54Z</time>
      </trkpt>
      <trkpt lat="45.69676" lon="6.04169">
        <ele>1279.455717967</ele>
        <time>2015-02-04T11:05:59Z</time>
      </trkpt>
      <trkpt lat="45.69668" lon="6.04169">
        <ele>1279.455717967</ele>
        <time>2015-02-04T11:06:04Z</time>
      </trkpt>
      <trkpt lat="45.69658" lon="6.04169">
        <ele>1280.599853305</ele>
        <time>2015-02-04T11:06:09Z</time>
      </trkpt>
      <trkpt lat="45.69647" lon="6.04167">
        <ele>1281.773888688</ele>
        <time>2015-02-04T11:06:14Z</time>
      </trkpt>
      <trkpt lat="45.69638" lon="6.04161">
        <ele>1283.118429369</ele>
        <time>2015-02-04T11:06:19Z</time>
      </trkpt>
      <trkpt lat="45.69625" lon="6.04149">
        <ele>1284.619107556</ele>
        <time>2015-02-04T11:06:24Z</time>
      </trkpt>
      <trkpt lat="45.69613" lon="6.0414">
        <ele>1286.694462228</ele>
        <time>2015-02-04T11:06:29Z</time>
      </trkpt>
      <trkpt lat="45.69602" lon="6.04141">
        <ele>1288.721863604</ele>
        <time>2015-02-04T11:06:34Z</time>
      </trkpt>
      <trkpt lat="45.69593" lon="6.0414">
        <ele>1290.989201262</ele>
        <time>2015-02-04T11:06:39Z</time>
      </trkpt>
      <trkpt lat="45.6958" lon="6.04143">
        <ele>1292.89786901</ele>
        <time>2015-02-04T11:06:44Z</time>
      </trkpt>
      <trkpt lat="45.69565" lon="6.04141">
        <ele>1294.903023395</ele>
        <time>2015-02-04T11:06:49Z</time>
      </trkpt>
      <trkpt lat="45.69556" lon="6.04145">
        <ele>1295.840906659</ele>
        <time>2015-02-04T11:06:54Z</time>
      </trkpt>
      <trkpt lat="45.69552" lon="6.04158">
        <ele>1296.365599222</ele>
        <time>2015-02-04T11:06:59Z</time>
      </trkpt>
      <trkpt lat="45.69546" lon="6.04167">
        <ele>1296.940205262</ele>
        <time>2015-02-04T11:07:04Z</time>
      </trkpt>
      <trkpt lat="45.69546" lon="6.04172">
        <ele>1296.940205262</ele>
        <time>2015-02-04T11:07:09Z</time>
      </trkpt>
      <trkpt lat="45.69542" lon="6.0418">
        <ele>1296.696691702</ele>
        <time>2015-02-04T11:07:14Z</time>
      </trkpt>
      <trkpt lat="45.69533" lon="6.04201">
        <ele>1296.994772035</ele>
        <time>2015-02-04T11:07:19Z</time>
      </trkpt>
      <trkpt lat="45.69523" lon="6.04212">
        <ele>1297.795770847</ele>
        <time>2015-02-04T11:07:24Z</time>
      </trkpt>
      <trkpt lat="45.69521" lon="6.04209">
        <ele>1297.795770847</ele>
        <time>2015-02-04T11:07:29Z</time>
      </trkpt>
      <trkpt lat="45.69514" lon="6.04194">
        <ele>1297.909563484</ele>
        <time>2015-02-04T11:07:34Z</time>
      </trkpt>
      <trkpt lat="45.69503" lon="6.04179">
        <ele>1298.108829717</ele>
        <time>2015-02-04T11:07:39Z</time>
      </trkpt>
      <trkpt lat="45.69496" lon="6.04165">
        <ele>1298.100472492</ele>
        <time>2015-02-04T11:07:44Z</time>
      </trkpt>
      <trkpt lat="45.69493" lon="6.04156">
        <ele>1298.100472492</ele>
        <time>2015-02-04T11:07:49Z</time>
      </trkpt>
      <trkpt lat="45.6949" lon="6.04145">
        <ele>1297.325281615</ele>
        <time>2015-02-04T11:07:54Z</time>
      </trkpt>
      <trkpt lat="45.69486" lon="6.04134">
        <ele>1297.325281615</ele>
        <time>2015-02-04T11:07:59Z</time>
      </trkpt>
      <trkpt lat="45.69481" lon="6.04105">
        <ele>1298.005380565</ele>
        <time>2015-02-04T11:08:04Z</time>
      </trkpt>
      <trkpt lat="45.69475" lon="6.04088">
        <ele>1298.736893112</ele>
        <time>2015-02-04T11:08:09Z</time>
      </trkpt>
      <trkpt lat="45.69465" lon="6.04071">
        <ele>1300.236468322</ele>
        <time>2015-02-04T11:08:14Z</time>
      </trkpt>
      <trkpt lat="45.69453" lon="6.04073">
        <ele>1301.580719903</ele>
        <time>2015-02-04T11:08:19Z</time>
      </trkpt>
      <trkpt lat="45.69442" lon="6.04085">
        <ele>1302.779187028</ele>
        <time>2015-02-04T11:08:24Z</time>
      </trkpt>
      <trkpt lat="45.69435" lon="6.04088">
        <ele>1302.779187028</ele>
        <time>2015-02-04T11:08:29Z</time>
      </trkpt>
      <trkpt lat="45.69422" lon="6.04097">
        <ele>1303.69700212</ele>
        <time>2015-02-04T11:08:34Z</time>
      </trkpt>
      <trkpt lat="45.69411" lon="6.04099">
        <ele>1304.20999225</ele>
        <time>2015-02-04T11:08:39Z</time>
      </trkpt>
      <trkpt lat="45.69401" lon="6.04107">
        <ele>1305.213022817</ele>
        <time>2015-02-04T11:08:44Z</time>
      </trkpt>
      <trkpt lat="45.69387" lon="6.04115">
        <ele>1306.66918649</ele>
        <time>2015-02-04T11:08:49Z</time>
      </trkpt>
      <trkpt lat="45.69376" lon="6.04123">
        <ele>1308.831247437</ele>
        <time>2015-02-04T11:08:54Z</time>
      </trkpt>
      <trkpt lat="45.69369" lon="6.04128">
        <ele>1308.831247437</ele>
        <time>2015-02-04T11:08:59Z</time>
      </trkpt>
      <trkpt lat="45.69362" lon="6.04127">
        <ele>1310.77854697</ele>
        <time>2015-02-04T11:09:04Z</time>
      </trkpt>
      <trkpt lat="45.69345" lon="6.04116">
        <ele>1312.667460375</ele>
        <time>2015-02-04T11:09:09Z</time>
      </trkpt>
      <trkpt lat="45.69336" lon="6.04107">
        <ele>1314.066624778</ele>
        <time>2015-02-04T11:09:14Z</time>
      </trkpt>
      <trkpt lat="45.69323" lon="6.04097">
        <ele>1314.865996835</ele>
        <time>2015-02-04T11:09:19Z</time>
      </trkpt>
      <trkpt lat="45.69315" lon="6.0408">
        <ele>1315.685893963</ele>
        <time>2015-02-04T11:09:24Z</time>
      </trkpt>
      <trkpt lat="45.69307" lon="6.04066">
        <ele>1316.236379355</ele>
        <time>2015-02-04T11:09:29Z</time>
      </trkpt>
      <trkpt lat="45.69297" lon="6.04047">
        <ele>1317.258385668</ele>
        <time>2015-02-04T11:09:34Z</time>
      </trkpt>
      <trkpt lat="45.69292" lon="6.04036">
        <ele>1317.419571167</ele>
        <time>2015-02-04T11:09:39Z</time>
      </trkpt>
      <trkpt lat="45.69284" lon="6.04018">
        <ele>1317.937801376</ele>
        <time>2015-02-04T11:09:44Z</time>
      </trkpt>
      <trkpt lat="45.69278" lon="6.04007">
        <ele>1318.355278859</ele>
        <time>2015-02-04T11:09:49Z</time>
      </trkpt>
      <trkpt lat="45.69273" lon="6.03996">
        <ele>1318.104026632</ele>
        <time>2015-02-04T11:09:54Z</time>
      </trkpt>
      <trkpt lat="45.6927" lon="6.03984">
        <ele>1317.524345905</ele>
        <time>2015-02-04T11:09:59Z</time>
      </trkpt>
      <trkpt lat="45.69264" lon="6.03969">
        <ele>1317.653021434</ele>
        <time>2015-02-04T11:10:04Z</time>
      </trkpt>
      <trkpt lat="45.69256" lon="6.03956">
        <ele>1317.719351913</ele>
        <time>2015-02-04T11:10:09Z</time>
      </trkpt>
      <trkpt lat="45.69248" lon="6.03951">
        <ele>1317.719351913</ele>
        <time>2015-02-04T11:10:14Z</time>
      </trkpt>
      <trkpt lat="45.69241" lon="6.03947">
        <ele>1318.306416699</ele>
        <time>2015-02-04T11:10:19Z</time>
      </trkpt>
      <trkpt lat="45.69233" lon="6.0394">
        <ele>1318.655986153</ele>
        <time>2015-02-04T11:10:24Z</time>
      </trkpt>
      <trkpt lat="45.69222" lon="6.03938">
        <ele>1319.363179088</ele>
        <time>2015-02-04T11:10:29Z</time>
      </trkpt>
      <trkpt lat="45.69204" lon="6.03932">
        <ele>1320.546042736</ele>
        <time>2015-02-04T11:10:34Z</time>
      </trkpt>
      <trkpt lat="45.69198" lon="6.03927">
        <ele>1320.546042736</ele>
        <time>2015-02-04T11:10:39Z</time>
      </trkpt>
      <trkpt lat="45.69185" lon="6.0392">
        <ele>1321.592045732</ele>
        <time>2015-02-04T11:10:44Z</time>
      </trkpt>
      <trkpt lat="45.69178" lon="6.03913">
        <ele>1321.592045732</ele>
        <time>2015-02-04T11:10:49Z</time>
      </trkpt>
      <trkpt lat="45.6917" lon="6.03905">
        <ele>1321.789909745</ele>
        <time>2015-02-04T11:10:54Z</time>
      </trkpt>
      <trkpt lat="45.69158" lon="6.03897">
        <ele>1322.068193622</ele>
        <time>2015-02-04T11:10:59Z</time>
      </trkpt>
      <trkpt lat="45.69144" lon="6.03883">
        <ele>1322.566448362</ele>
        <time>2015-02-04T11:11:04Z</time>
      </trkpt>
      <trkpt lat="45.69126" lon="6.0387">
        <ele>1323.269229337</ele>
        <time>2015-02-04T11:11:09Z</time>
      </trkpt>
      <trkpt lat="45.69109" lon="6.03869">
        <ele>1323.873413017</ele>
        <time>2015-02-04T11:11:14Z</time>
      </trkpt>
      <trkpt lat="45.6909" lon="6.03867">
        <ele>1324.242512796</ele>
        <time>2015-02-04T11:11:19Z</time>
      </trkpt>
      <trkpt lat="45.69073" lon="6.03863">
        <ele>1324.683042839</ele>
        <time>2015-02-04T11:11:24Z</time>
      </trkpt>
      <trkpt lat="45.6906" lon="6.03849">
        <ele>1324.037668043</ele>
        <time>2015-02-04T11:11:29Z</time>
      </trkpt>
      <trkpt lat="45.69049" lon="6.0383">
        <ele>1323.686982118</ele>
        <time>2015-02-04T11:11:34Z</time>
      </trkpt>
      <trkpt lat="45.69042" lon="6.0381">
        <ele>1323.612304756</ele>
        <time>2015-02-04T11:11:39Z</time>
      </trkpt>
      <trkpt lat="45.69037" lon="6.03789">
        <ele>1322.786739489</ele>
        <time>2015-02-04T11:11:44Z</time>
      </trkpt>
      <trkpt lat="45.69036" lon="6.03778">
        <ele>1322.786739489</ele>
        <time>2015-02-04T11:11:49Z</time>
      </trkpt>
      <trkpt lat="45.69031" lon="6.03763">
        <ele>1322.566667867</ele>
        <time>2015-02-04T11:11:54Z</time>
      </trkpt>
      <trkpt lat="45.69025" lon="6.03747">
        <ele>1322.621863645</ele>
        <time>2015-02-04T11:11:59Z</time>
      </trkpt>
      <trkpt lat="45.69018" lon="6.03729">
        <ele>1322.789646536</ele>
        <time>2015-02-04T11:12:04Z</time>
      </trkpt>
      <trkpt lat="45.69016" lon="6.03714">
        <ele>1322.486582776</ele>
        <time>2015-02-04T11:12:09Z</time>
      </trkpt>
      <trkpt lat="45.6901" lon="6.03691">
        <ele>1321.893917039</ele>
        <time>2015-02-04T11:12:14Z</time>
      </trkpt>
      <trkpt lat="45.69002" lon="6.03676">
        <ele>1322.18911221</ele>
        <time>2015-02-04T11:12:19Z</time>
      </trkpt>
      <trkpt lat="45.68994" lon="6.03662">
        <ele>1322.587140306</ele>
        <time>2015-02-04T11:12:24Z</time>
      </trkpt>
      <trkpt lat="45.68986" lon="6.03652">
        <ele>1322.792626446</ele>
        <time>2015-02-04T11:12:29Z</time>
      </trkpt>
      <trkpt lat="45.68975" lon="6.0365">
        <ele>1323.108820383</ele>
        <time>2015-02-04T11:12:34Z</time>
      </trkpt>
      <trkpt lat="45.68964" lon="6.03653">
        <ele>1323.383995566</ele>
        <time>2015-02-04T11:12:39Z</time>
      </trkpt>
      <trkpt lat="45.68947" lon="6.03662">
        <ele>1323.477632691</ele>
        <time>2015-02-04T11:12:44Z</time>
      </trkpt>
      <trkpt lat="45.6893" lon="6.03666">
        <ele>1323.115880433</ele>
        <time>2015-02-04T11:12:49Z</time>
      </trkpt>
      <trkpt lat="45.68915" lon="6.03672">
        <ele>1322.478562491</ele>
        <time>2015-02-04T11:12:54Z</time>
      </trkpt>
      <trkpt lat="45.68895" lon="6.03678">
        <ele>1322.165345116</ele>
        <time>2015-02-04T11:12:59Z</time>
      </trkpt>
      <trkpt lat="45.68882" lon="6.0368">
        <ele>1321.577987841</ele>
        <time>2015-02-04T11:13:04Z</time>
      </trkpt>
      <trkpt lat="45.68866" lon="6.03666">
        <ele>1321.171683756</ele>
        <time>2015-02-04T11:13:09Z</time>
      </trkpt>
      <trkpt lat="45.68857" lon="6.03655">
        <ele>1320.935283963</ele>
        <time>2015-02-04T11:13:14Z</time>
      </trkpt>
      <trkpt lat="45.68845" lon="6.03644">
        <ele>1320.71380695</ele>
        <time>2015-02-04T11:13:19Z</time>
      </trkpt>
      <trkpt lat="45.68836" lon="6.03627">
        <ele>1319.642992299</ele>
        <time>2015-02-04T11:13:24Z</time>
      </trkpt>
      <trkpt lat="45.68835" lon="6.03602">
        <ele>1319.518384471</ele>
        <time>2015-02-04T11:13:29Z</time>
      </trkpt>
      <trkpt lat="45.68833" lon="6.03575">
        <ele>1319.551016797</ele>
        <time>2015-02-04T11:13:34Z</time>
      </trkpt>
      <trkpt lat="45.68832" lon="6.03554">
        <ele>1319.874039044</ele>
        <time>2015-02-04T11:13:39Z</time>
      </trkpt>
      <trkpt lat="45.68834" lon="6.03535">
        <ele>1319.457050505</ele>
        <time>2015-02-04T11:13:44Z</time>
      </trkpt>
      <trkpt lat="45.68834" lon="6.03514">
        <ele>1318.067910191</ele>
        <time>2015-02-04T11:13:49Z</time>
      </trkpt>
      <trkpt lat="45.68835" lon="6.03491">
        <ele>1316.791192041</ele>
        <time>2015-02-04T11:13:54Z</time>
      </trkpt>
      <trkpt lat="45.6883" lon="6.03471">
        <ele>1315.76674657</ele>
        <time>2015-02-04T11:13:59Z</time>
      </trkpt>
      <trkpt lat="45.68822" lon="6.03456">
        <ele>1315.267481323</ele>
        <time>2015-02-04T11:14:04Z</time>
      </trkpt>
      <trkpt lat="45.68813" lon="6.03445">
        <ele>1314.824150559</ele>
        <time>2015-02-04T11:14:09Z</time>
      </trkpt>
      <trkpt lat="45.68803" lon="6.03429">
        <ele>1314.289966635</ele>
        <time>2015-02-04T11:14:14Z</time>
      </trkpt>
      <trkpt lat="45.68795" lon="6.0342">
        <ele>1313.240879062</ele>
        <time>2015-02-04T11:14:19Z</time>
      </trkpt>
      <trkpt lat="45.68795" lon="6.03394">
        <ele>1313.158800586</ele>
        <time>2015-02-04T11:14:24Z</time>
      </trkpt>
      <trkpt lat="45.68798" lon="6.03378">
        <ele>1313.396439786</ele>
        <time>2015-02-04T11:14:29Z</time>
      </trkpt>
      <trkpt lat="45.688" lon="6.03349">
        <ele>1313.929532082</ele>
        <time>2015-02-04T11:14:34Z</time>
      </trkpt>
      <trkpt lat="45.68808" lon="6.03328">
        <ele>1314.446479848</ele>
        <time>2015-02-04T11:14:39Z</time>
      </trkpt>
      <trkpt lat="45.6882" lon="6.03308">
        <ele>1314.946786984</ele>
        <time>2015-02-04T11:14:44Z</time>
      </trkpt>
      <trkpt lat="45.68826" lon="6.03296">
        <ele>1315.42999356</ele>
        <time>2015-02-04T11:14:49Z</time>
      </trkpt>
      <trkpt lat="45.68833" lon="6.03279">
        <ele>1316.183905949</ele>
        <time>2015-02-04T11:14:54Z</time>
      </trkpt>
      <trkpt lat="45.68837" lon="6.03268">
        <ele>1316.183905949</ele>
        <time>2015-02-04T11:14:59Z</time>
      </trkpt>
      <trkpt lat="45.68841" lon="6.03251">
        <ele>1316.753843943</ele>
        <time>2015-02-04T11:15:04Z</time>
      </trkpt>
      <trkpt lat="45.68842" lon="6.03232">
        <ele>1318.016024654</ele>
        <time>2015-02-04T11:15:09Z</time>
      </trkpt>
      <trkpt lat="45.68839" lon="6.03212">
        <ele>1319.339235313</ele>
        <time>2015-02-04T11:15:14Z</time>
      </trkpt>
      <trkpt lat="45.68834" lon="6.03205">
        <ele>1319.339235313</ele>
        <time>2015-02-04T11:15:19Z</time>
      </trkpt>
      <trkpt lat="45.68824" lon="6.03181">
        <ele>1320.426683228</ele>
        <time>2015-02-04T11:15:24Z</time>
      </trkpt>
      <trkpt lat="45.68817" lon="6.03167">
        <ele>1321.292272158</ele>
        <time>2015-02-04T11:15:29Z</time>
      </trkpt>
      <trkpt lat="45.6881" lon="6.03147">
        <ele>1321.805415167</ele>
        <time>2015-02-04T11:15:34Z</time>
      </trkpt>
      <trkpt lat="45.68799" lon="6.03125">
        <ele>1321.8461324</ele>
        <time>2015-02-04T11:15:39Z</time>
      </trkpt>
      <trkpt lat="45.6877" lon="6.03103">
        <ele>1321.881056529</ele>
        <time>2015-02-04T11:15:44Z</time>
      </trkpt>
      <trkpt lat="45.68758" lon="6.03106">
        <ele>1321.910254387</ele>
        <time>2015-02-04T11:15:49Z</time>
      </trkpt>
      <trkpt lat="45.68741" lon="6.03113">
        <ele>1322.077944788</ele>
        <time>2015-02-04T11:15:54Z</time>
      </trkpt>
      <trkpt lat="45.68729" lon="6.03118">
        <ele>1322.085058822</ele>
        <time>2015-02-04T11:15:59Z</time>
      </trkpt>
      <trkpt lat="45.68714" lon="6.03123">
        <ele>1322.231419804</ele>
        <time>2015-02-04T11:16:04Z</time>
      </trkpt>
      <trkpt lat="45.687" lon="6.03125">
        <ele>1322.218017564</ele>
        <time>2015-02-04T11:16:09Z</time>
      </trkpt>
      <trkpt lat="45.68684" lon="6.0312">
        <ele>1322.200614286</ele>
        <time>2015-02-04T11:16:14Z</time>
      </trkpt>
      <trkpt lat="45.68668" lon="6.03115">
        <ele>1322.323565632</ele>
        <time>2015-02-04T11:16:19Z</time>
      </trkpt>
      <trkpt lat="45.68653" lon="6.03109">
        <ele>1322.720253115</ele>
        <time>2015-02-04T11:16:24Z</time>
      </trkpt>
      <trkpt lat="45.68635" lon="6.031">
        <ele>1322.937070934</ele>
        <time>2015-02-04T11:16:29Z</time>
      </trkpt>
      <trkpt lat="45.68621" lon="6.03087">
        <ele>1323.274818996</ele>
        <time>2015-02-04T11:16:34Z</time>
      </trkpt>
      <trkpt lat="45.68609" lon="6.03072">
        <ele>1323.723663632</ele>
        <time>2015-02-04T11:16:39Z</time>
      </trkpt>
      <trkpt lat="45.68601" lon="6.03057">
        <ele>1323.841873589</ele>
        <time>2015-02-04T11:16:44Z</time>
      </trkpt>
      <trkpt lat="45.68595" lon="6.03036">
        <ele>1324.085787136</ele>
        <time>2015-02-04T11:16:49Z</time>
      </trkpt>
      <trkpt lat="45.6859" lon="6.03019">
        <ele>1324.157337358</ele>
        <time>2015-02-04T11:16:54Z</time>
      </trkpt>
      <trkpt lat="45.68585" lon="6.03004">
        <ele>1324.069083761</ele>
        <time>2015-02-04T11:16:59Z</time>
      </trkpt>
      <trkpt lat="45.68581" lon="6.02989">
        <ele>1323.83313435</ele>
        <time>2015-02-04T11:17:04Z</time>
      </trkpt>
      <trkpt lat="45.68577" lon="6.02972">
        <ele>1323.749364888</ele>
        <time>2015-02-04T11:17:09Z</time>
      </trkpt>
      <trkpt lat="45.68574" lon="6.02953">
        <ele>1323.374656916</ele>
        <time>2015-02-04T11:17:14Z</time>
      </trkpt>
      <trkpt lat="45.68571" lon="6.02933">
        <ele>1323.163940155</ele>
        <time>2015-02-04T11:17:19Z</time>
      </trkpt>
      <trkpt lat="45.68569" lon="6.0292">
        <ele>1323.105942486</ele>
        <time>2015-02-04T11:17:24Z</time>
      </trkpt>
      <trkpt lat="45.68567" lon="6.02905">
        <ele>1322.757465148</ele>
        <time>2015-02-04T11:17:29Z</time>
      </trkpt>
      <trkpt lat="45.68567" lon="6.0289">
        <ele>1322.429241233</ele>
        <time>2015-02-04T11:17:34Z</time>
      </trkpt>
      <trkpt lat="45.68568" lon="6.02874">
        <ele>1322.120899442</ele>
        <time>2015-02-04T11:17:39Z</time>
      </trkpt>
      <trkpt lat="45.6857" lon="6.02857">
        <ele>1321.976149386</ele>
        <time>2015-02-04T11:17:44Z</time>
      </trkpt>
      <trkpt lat="45.68573" lon="6.02838">
        <ele>1321.839458195</ele>
        <time>2015-02-04T11:17:49Z</time>
      </trkpt>
      <trkpt lat="45.68575" lon="6.02821">
        <ele>1321.710800502</ele>
        <time>2015-02-04T11:17:54Z</time>
      </trkpt>
      <trkpt lat="45.68577" lon="6.02809">
        <ele>1321.710800502</ele>
        <time>2015-02-04T11:17:59Z</time>
      </trkpt>
      <trkpt lat="45.68578" lon="6.0279">
        <ele>1322.022456678</ele>
        <time>2015-02-04T11:18:04Z</time>
      </trkpt>
      <trkpt lat="45.6858" lon="6.02773">
        <ele>1322.453154336</ele>
        <time>2015-02-04T11:18:09Z</time>
      </trkpt>
      <trkpt lat="45.68581" lon="6.02756">
        <ele>1323.569550686</ele>
        <time>2015-02-04T11:18:14Z</time>
      </trkpt>
      <trkpt lat="45.68583" lon="6.02747">
        <ele>1323.569550686</ele>
        <time>2015-02-04T11:18:19Z</time>
      </trkpt>
      <trkpt lat="45.68584" lon="6.02732">
        <ele>1324.597753026</ele>
        <time>2015-02-04T11:18:24Z</time>
      </trkpt>
      <trkpt lat="45.68586" lon="6.02716">
        <ele>1325.253305304</ele>
        <time>2015-02-04T11:18:29Z</time>
      </trkpt>
      <trkpt lat="45.68588" lon="6.02701">
        <ele>1325.99426082</ele>
        <time>2015-02-04T11:18:34Z</time>
      </trkpt>
      <trkpt lat="45.68589" lon="6.02689">
        <ele>1325.99426082</ele>
        <time>2015-02-04T11:18:39Z</time>
      </trkpt>
      <trkpt lat="45.68591" lon="6.02677">
        <ele>1326.524246631</ele>
        <time>2015-02-04T11:18:44Z</time>
      </trkpt>
      <trkpt lat="45.68594" lon="6.02664">
        <ele>1327.145719247</ele>
        <time>2015-02-04T11:18:49Z</time>
      </trkpt>
      <trkpt lat="45.68595" lon="6.02654">
        <ele>1327.145719247</ele>
        <time>2015-02-04T11:18:54Z</time>
      </trkpt>
      <trkpt lat="45.68597" lon="6.02642">
        <ele>1328.138685523</ele>
        <time>2015-02-04T11:18:59Z</time>
      </trkpt>
      <trkpt lat="45.68599" lon="6.02627">
        <ele>1329.32923686</ele>
        <time>2015-02-04T11:19:04Z</time>
      </trkpt>
      <trkpt lat="45.68599" lon="6.02614">
        <ele>1330.555719587</ele>
        <time>2015-02-04T11:19:09Z</time>
      </trkpt>
      <trkpt lat="45.68596" lon="6.02598">
        <ele>1331.812404942</ele>
        <time>2015-02-04T11:19:14Z</time>
      </trkpt>
      <trkpt lat="45.68592" lon="6.02589">
        <ele>1331.812404942</ele>
        <time>2015-02-04T11:19:19Z</time>
      </trkpt>
      <trkpt lat="45.68587" lon="6.02572">
        <ele>1332.66161165</ele>
        <time>2015-02-04T11:19:24Z</time>
      </trkpt>
      <trkpt lat="45.68582" lon="6.02555">
        <ele>1333.56366996</ele>
        <time>2015-02-04T11:19:29Z</time>
      </trkpt>
      <trkpt lat="45.68576" lon="6.02538">
        <ele>1334.368554615</ele>
        <time>2015-02-04T11:19:34Z</time>
      </trkpt>
      <trkpt lat="45.68572" lon="6.02525">
        <ele>1334.93758851</ele>
        <time>2015-02-04T11:19:39Z</time>
      </trkpt>
      <trkpt lat="45.68565" lon="6.02504">
        <ele>1335.719443638</ele>
        <time>2015-02-04T11:19:44Z</time>
      </trkpt>
      <trkpt lat="45.6856" lon="6.02491">
        <ele>1336.552847193</ele>
        <time>2015-02-04T11:19:49Z</time>
      </trkpt>
      <trkpt lat="45.68551" lon="6.02476">
        <ele>1337.28828478</ele>
        <time>2015-02-04T11:19:54Z</time>
      </trkpt>
      <trkpt lat="45.68542" lon="6.02472">
        <ele>1337.28828478</ele>
        <time>2015-02-04T11:19:59Z</time>
      </trkpt>
      <trkpt lat="45.68526" lon="6.0246">
        <ele>1337.643444113</ele>
        <time>2015-02-04T11:20:04Z</time>
      </trkpt>
      <trkpt lat="45.68512" lon="6.02452">
        <ele>1337.501982477</ele>
        <time>2015-02-04T11:20:09Z</time>
      </trkpt>
      <trkpt lat="45.68502" lon="6.02441">
        <ele>1337.622213698</ele>
        <time>2015-02-04T11:20:14Z</time>
      </trkpt>
      <trkpt lat="45.6849" lon="6.02428">
        <ele>1338.417836252</ele>
        <time>2015-02-04T11:20:19Z</time>
      </trkpt>
      <trkpt lat="45.68476" lon="6.02416">
        <ele>1339.405640188</ele>
        <time>2015-02-04T11:20:24Z</time>
      </trkpt>
      <trkpt lat="45.68461" lon="6.02403">
        <ele>1340.137414086</ele>
        <time>2015-02-04T11:20:29Z</time>
      </trkpt>
      <trkpt lat="45.68449" lon="6.02391">
        <ele>1340.775075778</ele>
        <time>2015-02-04T11:20:34Z</time>
      </trkpt>
      <trkpt lat="45.68428" lon="6.02372">
        <ele>1341.036619774</ele>
        <time>2015-02-04T11:20:39Z</time>
      </trkpt>
      <trkpt lat="45.68415" lon="6.02359">
        <ele>1340.805961051</ele>
        <time>2015-02-04T11:20:44Z</time>
      </trkpt>
      <trkpt lat="45.68398" lon="6.02341">
        <ele>1340.409290085</ele>
        <time>2015-02-04T11:20:49Z</time>
      </trkpt>
      <trkpt lat="45.68379" lon="6.02318">
        <ele>1340.149328829</ele>
        <time>2015-02-04T11:20:54Z</time>
      </trkpt>
      <trkpt lat="45.68361" lon="6.02302">
        <ele>1339.585641688</ele>
        <time>2015-02-04T11:20:59Z</time>
      </trkpt>
      <trkpt lat="45.68347" lon="6.02288">
        <ele>1338.887454716</ele>
        <time>2015-02-04T11:21:04Z</time>
      </trkpt>
      <trkpt lat="45.68334" lon="6.0227">
        <ele>1338.500164822</ele>
        <time>2015-02-04T11:21:09Z</time>
      </trkpt>
      <trkpt lat="45.68315" lon="6.02259">
        <ele>1337.970905372</ele>
        <time>2015-02-04T11:21:14Z</time>
      </trkpt>
      <trkpt lat="45.68306" lon="6.02261">
        <ele>1337.970905372</ele>
        <time>2015-02-04T11:21:19Z</time>
      </trkpt>
      <trkpt lat="45.68294" lon="6.02263">
        <ele>1337.456906385</ele>
        <time>2015-02-04T11:21:24Z</time>
      </trkpt>
      <trkpt lat="45.68279" lon="6.02264">
        <ele>1337.103784729</ele>
        <time>2015-02-04T11:21:29Z</time>
      </trkpt>
      <trkpt lat="45.68274" lon="6.02255">
        <ele>1337.103784729</ele>
        <time>2015-02-04T11:21:34Z</time>
      </trkpt>
      <trkpt lat="45.68274" lon="6.02246">
        <ele>1336.757760632</ele>
        <time>2015-02-04T11:21:39Z</time>
      </trkpt>
      <trkpt lat="45.68273" lon="6.02233">
        <ele>1336.708633877</ele>
        <time>2015-02-04T11:21:44Z</time>
      </trkpt>
      <trkpt lat="45.68274" lon="6.02222">
        <ele>1336.708633877</ele>
        <time>2015-02-04T11:21:49Z</time>
      </trkpt>
      <trkpt lat="45.68274" lon="6.02215">
        <ele>1336.935827033</ele>
        <time>2015-02-04T11:21:54Z</time>
      </trkpt>
      <trkpt lat="45.68274" lon="6.02205">
        <ele>1336.935827033</ele>
        <time>2015-02-04T11:21:59Z</time>
      </trkpt>
      <trkpt lat="45.68274" lon="6.02184">
        <ele>1337.419464764</ele>
        <time>2015-02-04T11:22:04Z</time>
      </trkpt>
      <trkpt lat="45.68276" lon="6.02179">
        <ele>1337.419464764</ele>
        <time>2015-02-04T11:22:09Z</time>
      </trkpt>
      <trkpt lat="45.68276" lon="6.02169">
        <ele>1337.85215638</ele>
        <time>2015-02-04T11:22:14Z</time>
      </trkpt>
      <trkpt lat="45.68275" lon="6.02162">
        <ele>1337.85215638</ele>
        <time>2015-02-04T11:22:19Z</time>
      </trkpt>
      <trkpt lat="45.68274" lon="6.02155">
        <ele>1338.669759882</ele>
        <time>2015-02-04T11:22:24Z</time>
      </trkpt>
      <trkpt lat="45.68273" lon="6.02146">
        <ele>1338.669759882</ele>
        <time>2015-02-04T11:22:29Z</time>
      </trkpt>
      <trkpt lat="45.68271" lon="6.02136">
        <ele>1339.69856452</ele>
        <time>2015-02-04T11:22:34Z</time>
      </trkpt>
      <trkpt lat="45.68268" lon="6.02115">
        <ele>1341.209341121</ele>
        <time>2015-02-04T11:22:39Z</time>
      </trkpt>
      <trkpt lat="45.68265" lon="6.02104">
        <ele>1341.209341121</ele>
        <time>2015-02-04T11:22:44Z</time>
      </trkpt>
      <trkpt lat="45.68259" lon="6.02085">
        <ele>1342.442826648</ele>
        <time>2015-02-04T11:22:49Z</time>
      </trkpt>
      <trkpt lat="45.68253" lon="6.02067">
        <ele>1343.705084438</ele>
        <time>2015-02-04T11:22:54Z</time>
      </trkpt>
      <trkpt lat="45.68247" lon="6.02046">
        <ele>1345.27961811</ele>
        <time>2015-02-04T11:22:59Z</time>
      </trkpt>
      <trkpt lat="45.68243" lon="6.02022">
        <ele>1347.140020442</ele>
        <time>2015-02-04T11:23:04Z</time>
      </trkpt>
      <trkpt lat="45.68245" lon="6.0201">
        <ele>1347.140020442</ele>
        <time>2015-02-04T11:23:09Z</time>
      </trkpt>
      <trkpt lat="45.68249" lon="6.01987">
        <ele>1348.252265445</ele>
        <time>2015-02-04T11:23:14Z</time>
      </trkpt>
      <trkpt lat="45.68253" lon="6.01963">
        <ele>1349.101525095</ele>
        <time>2015-02-04T11:23:19Z</time>
      </trkpt>
      <trkpt lat="45.68256" lon="6.01946">
        <ele>1349.70576885</ele>
        <time>2015-02-04T11:23:24Z</time>
      </trkpt>
      <trkpt lat="45.68258" lon="6.01937">
        <ele>1349.70576885</ele>
        <time>2015-02-04T11:23:29Z</time>
      </trkpt>
      <trkpt lat="45.68261" lon="6.01905">
        <ele>1350.226480849</ele>
        <time>2015-02-04T11:23:34Z</time>
      </trkpt>
      <trkpt lat="45.68255" lon="6.01884">
        <ele>1350.81355339</ele>
        <time>2015-02-04T11:23:39Z</time>
      </trkpt>
      <trkpt lat="45.68244" lon="6.01859">
        <ele>1351.461606038</ele>
        <time>2015-02-04T11:23:44Z</time>
      </trkpt>
      <trkpt lat="45.68244" lon="6.01835">
        <ele>1351.877294276</ele>
        <time>2015-02-04T11:23:49Z</time>
      </trkpt>
      <trkpt lat="45.68247" lon="6.01779">
        <ele>1352.077728731</ele>
        <time>2015-02-04T11:23:54Z</time>
      </trkpt>
      <trkpt lat="45.68245" lon="6.01749">
        <ele>1352.079396103</ele>
        <time>2015-02-04T11:23:59Z</time>
      </trkpt>
      <trkpt lat="45.6824" lon="6.01719">
        <ele>1352.042266009</ele>
        <time>2015-02-04T11:24:04Z</time>
      </trkpt>
      <trkpt lat="45.68231" lon="6.017">
        <ele>1351.826463349</ele>
        <time>2015-02-04T11:24:09Z</time>
      </trkpt>
      <trkpt lat="45.68213" lon="6.01664">
        <ele>1351.591125874</ele>
        <time>2015-02-04T11:24:14Z</time>
      </trkpt>
      <trkpt lat="45.68193" lon="6.01648">
        <ele>1350.76320701</ele>
        <time>2015-02-04T11:24:19Z</time>
      </trkpt>
      <trkpt lat="45.68165" lon="6.01645">
        <ele>1349.966306488</ele>
        <time>2015-02-04T11:24:24Z</time>
      </trkpt>
      <trkpt lat="45.6815" lon="6.01642">
        <ele>1349.489896148</ele>
        <time>2015-02-04T11:24:29Z</time>
      </trkpt>
      <trkpt lat="45.68134" lon="6.01642">
        <ele>1349.313044954</ele>
        <time>2015-02-04T11:24:34Z</time>
      </trkpt>
      <trkpt lat="45.68125" lon="6.01653">
        <ele>1348.983161503</ele>
        <time>2015-02-04T11:24:39Z</time>
      </trkpt>
      <trkpt lat="45.68116" lon="6.01672">
        <ele>1348.369523163</ele>
        <time>2015-02-04T11:24:44Z</time>
      </trkpt>
      <trkpt lat="45.68111" lon="6.01687">
        <ele>1347.78410474</ele>
        <time>2015-02-04T11:24:49Z</time>
      </trkpt>
      <trkpt lat="45.68102" lon="6.0171">
        <ele>1347.37173374</ele>
        <time>2015-02-04T11:24:54Z</time>
      </trkpt>
      <trkpt lat="45.68095" lon="6.01726">
        <ele>1347.121958304</ele>
        <time>2015-02-04T11:24:59Z</time>
      </trkpt>
      <trkpt lat="45.68084" lon="6.01747">
        <ele>1347.024591077</ele>
        <time>2015-02-04T11:25:04Z</time>
      </trkpt>
      <trkpt lat="45.68081" lon="6.0176">
        <ele>1347.646162236</ele>
        <time>2015-02-04T11:25:09Z</time>
      </trkpt>
      <trkpt lat="45.68071" lon="6.01767">
        <ele>1348.068409464</ele>
        <time>2015-02-04T11:25:14Z</time>
      </trkpt>
      <trkpt lat="45.68068" lon="6.01761">
        <ele>1348.068409464</ele>
        <time>2015-02-04T11:25:19Z</time>
      </trkpt>
      <trkpt lat="45.68065" lon="6.01752">
        <ele>1347.585149907</ele>
        <time>2015-02-04T11:25:24Z</time>
      </trkpt>
      <trkpt lat="45.68065" lon="6.01744">
        <ele>1347.585149907</ele>
        <time>2015-02-04T11:25:29Z</time>
      </trkpt>
      <trkpt lat="45.68067" lon="6.01733">
        <ele>1346.697460669</ele>
        <time>2015-02-04T11:25:34Z</time>
      </trkpt>
      <trkpt lat="45.68063" lon="6.01723">
        <ele>1346.697460669</ele>
        <time>2015-02-04T11:25:39Z</time>
      </trkpt>
      <trkpt lat="45.68063" lon="6.0171">
        <ele>1345.72658668</ele>
        <time>2015-02-04T11:25:44Z</time>
      </trkpt>
      <trkpt lat="45.68064" lon="6.01697">
        <ele>1345.258580114</ele>
        <time>2015-02-04T11:25:49Z</time>
      </trkpt>
      <trkpt lat="45.68066" lon="6.01683">
        <ele>1345.114421757</ele>
        <time>2015-02-04T11:25:54Z</time>
      </trkpt>
      <trkpt lat="45.68064" lon="6.01672">
        <ele>1345.114421757</ele>
        <time>2015-02-04T11:25:59Z</time>
      </trkpt>
      <trkpt lat="45.68068" lon="6.01663">
        <ele>1344.839055554</ele>
        <time>2015-02-04T11:26:04Z</time>
      </trkpt>
      <trkpt lat="45.68071" lon="6.0165">
        <ele>1345.019942891</ele>
        <time>2015-02-04T11:26:09Z</time>
      </trkpt>
      <trkpt lat="45.68071" lon="6.01637">
        <ele>1345.623611354</ele>
        <time>2015-02-04T11:26:14Z</time>
      </trkpt>
      <trkpt lat="45.68068" lon="6.01624">
        <ele>1346.617811392</ele>
        <time>2015-02-04T11:26:19Z</time>
      </trkpt>
      <trkpt lat="45.68066" lon="6.01617">
        <ele>1346.617811392</ele>
        <time>2015-02-04T11:26:24Z</time>
      </trkpt>
      <trkpt lat="45.68066" lon="6.01617">
        <ele>1346.617811392</ele>
        <time>2015-02-04T11:26:29Z</time>
      </trkpt>
      <trkpt lat="45.68066" lon="6.01616">
        <ele>1346.617811392</ele>
        <time>2015-02-04T11:26:34Z</time>
      </trkpt>
      <trkpt lat="45.68065" lon="6.01616">
        <ele>1346.617811392</ele>
        <time>2015-02-04T11:26:39Z</time>
      </trkpt>
      <trkpt lat="45.68065" lon="6.01616">
        <ele>1346.617811392</ele>
        <time>2015-02-04T11:26:44Z</time>
      </trkpt>
      <trkpt lat="45.68065" lon="6.01616">
        <ele>1346.617811392</ele>
        <time>2015-02-04T11:26:49Z</time>
      </trkpt>
      <trkpt lat="45.68064" lon="6.01617">
        <ele>1346.617811392</ele>
        <time>2015-02-04T11:26:54Z</time>
      </trkpt>
      <trkpt lat="45.68064" lon="6.01617">
        <ele>1346.617811392</ele>
        <time>2015-02-04T11:26:59Z</time>
      </trkpt>
      <trkpt lat="45.68065" lon="6.01615">
        <ele>1347.395078497</ele>
        <time>2015-02-04T11:27:07Z</time>
      </trkpt>
      <trkpt lat="45.68065" lon="6.01615">
        <ele>1347.395078497</ele>
        <time>2015-02-04T11:27:24Z</time>
      </trkpt>
      <trkpt lat="45.68065" lon="6.01615">
        <ele>1347.395078497</ele>
        <time>2015-02-04T11:27:31Z</time>
      </trkpt>
      <trkpt lat="45.68065" lon="6.01615">
        <ele>1347.395078497</ele>
        <time>2015-02-04T11:27:38Z</time>
      </trkpt>
      <trkpt lat="45.68065" lon="6.01614">
        <ele>1347.395078497</ele>
        <time>2015-02-04T11:28:05Z</time>
      </trkpt>
      <trkpt lat="45.68065" lon="6.01614">
        <ele>1347.395078497</ele>
        <time>2015-02-04T11:28:32Z</time>
      </trkpt>
      <trkpt lat="45.68065" lon="6.01614">
        <ele>1347.395078497</ele>
        <time>2015-02-04T11:28:45Z</time>
      </trkpt>
      <trkpt lat="45.68065" lon="6.01614">
        <ele>1347.395078497</ele>
        <time>2015-02-04T11:29:27Z</time>
      </trkpt>
      <trkpt lat="45.68065" lon="6.01614">
        <ele>1347.395078497</ele>
        <time>2015-02-04T11:30:09Z</time>
      </trkpt>
      <trkpt lat="45.68064" lon="6.01614">
        <ele>1347.395078497</ele>
        <time>2015-02-04T11:31:46Z</time>
      </trkpt>
      <trkpt lat="45.68064" lon="6.01614">
        <ele>1347.395078497</ele>
        <time>2015-02-04T11:32:08Z</time>
      </trkpt>
      <trkpt lat="45.68064" lon="6.01614">
        <ele>1347.395078497</ele>
        <time>2015-02-04T11:32:10Z</time>
      </trkpt>
      <trkpt lat="45.68063" lon="6.01613">
        <ele>1347.395078497</ele>
        <time>2015-02-04T11:32:39Z</time>
      </trkpt>
      <trkpt lat="45.68068" lon="6.01579">
        <ele>1348.401923348</ele>
        <time>2015-02-04T11:33:09Z</time>
      </trkpt>
      <trkpt lat="45.68076" lon="6.01424">
        <ele>1349.474941033</ele>
        <time>2015-02-04T11:33:44Z</time>
      </trkpt>
      <trkpt lat="45.68069" lon="6.01161">
        <ele>1349.597858608</ele>
        <time>2015-02-04T11:34:44Z</time>
      </trkpt>
      <trkpt lat="45.67948" lon="6.01042">
        <ele>1348.552263984</ele>
        <time>2015-02-04T11:35:44Z</time>
      </trkpt>
      <trkpt lat="45.6804" lon="6.00768">
        <ele>1348.877167561</ele>
        <time>2015-02-04T11:36:44Z</time>
      </trkpt>
      <trkpt lat="45.6797" lon="6.00623">
        <ele>1347.733204627</ele>
        <time>2015-02-04T11:37:44Z</time>
      </trkpt>
      <trkpt lat="45.67961" lon="6.00618">
        <ele>1346.96113699</ele>
        <time>2015-02-04T11:37:53Z</time>
      </trkpt>
      <trkpt lat="45.67949" lon="6.00616">
        <ele>1346.680216552</ele>
        <time>2015-02-04T11:37:54Z</time>
      </trkpt>
      <trkpt lat="45.67945" lon="6.00617">
        <ele>1346.680216552</ele>
        <time>2015-02-04T11:38:01Z</time>
      </trkpt>
      <trkpt lat="45.6794" lon="6.00628">
        <ele>1346.711309451</ele>
        <time>2015-02-04T11:38:07Z</time>
      </trkpt>
      <trkpt lat="45.67938" lon="6.00637">
        <ele>1346.711309451</ele>
        <time>2015-02-04T11:38:10Z</time>
      </trkpt>
      <trkpt lat="45.67884" lon="6.00686">
        <ele>1346.743426549</ele>
        <time>2015-02-04T11:38:39Z</time>
      </trkpt>
      <trkpt lat="45.67877" lon="6.00697">
        <ele>1346.488392481</ele>
        <time>2015-02-04T11:38:44Z</time>
      </trkpt>
      <trkpt lat="45.67904" lon="6.00565">
        <ele>1347.985760376</ele>
        <time>2015-02-04T11:39:44Z</time>
      </trkpt>
      <trkpt lat="45.67913" lon="6.00544">
        <ele>1349.517544509</ele>
        <time>2015-02-04T11:39:54Z</time>
      </trkpt>
      <trkpt lat="45.67921" lon="6.00529">
        <ele>1351.365299525</ele>
        <time>2015-02-04T11:40:00Z</time>
      </trkpt>
      <trkpt lat="45.67926" lon="6.00511">
        <ele>1353.500790338</ele>
        <time>2015-02-04T11:40:05Z</time>
      </trkpt>
      <trkpt lat="45.67927" lon="6.00508">
        <ele>1353.500790338</ele>
        <time>2015-02-04T11:40:13Z</time>
      </trkpt>
      <trkpt lat="45.6795" lon="6.00409">
        <ele>1356.473511611</ele>
        <time>2015-02-04T11:40:44Z</time>
      </trkpt>
      <trkpt lat="45.6799" lon="6.00278">
        <ele>1361.078504476</ele>
        <time>2015-02-04T11:41:44Z</time>
      </trkpt>
      <trkpt lat="45.67943" lon="6.00085">
        <ele>1365.021554012</ele>
        <time>2015-02-04T11:43:00Z</time>
      </trkpt>
      <trkpt lat="45.67889" lon="6.00009">
        <ele>1366.467137597</ele>
        <time>2015-02-04T11:43:29Z</time>
      </trkpt>
      <trkpt lat="45.67861" lon="5.99989">
        <ele>1367.324453131</ele>
        <time>2015-02-04T11:43:36Z</time>
      </trkpt>
      <trkpt lat="45.67845" lon="5.99969">
        <ele>1368.211320568</ele>
        <time>2015-02-04T11:43:39Z</time>
      </trkpt>
      <trkpt lat="45.67843" lon="5.99957">
        <ele>1368.211320568</ele>
        <time>2015-02-04T11:43:49Z</time>
      </trkpt>
      <trkpt lat="45.67834" lon="5.9992">
        <ele>1370.564874156</ele>
        <time>2015-02-04T11:44:00Z</time>
      </trkpt>
      <trkpt lat="45.6782" lon="5.99896">
        <ele>1372.686344525</ele>
        <time>2015-02-04T11:44:10Z</time>
      </trkpt>
      <trkpt lat="45.67777" lon="5.99828">
        <ele>1375.884748596</ele>
        <time>2015-02-04T11:45:00Z</time>
      </trkpt>
      <trkpt lat="45.67777" lon="5.99828">
        <ele>1375.884748596</ele>
        <time>2015-02-04T11:45:34Z</time>
      </trkpt>
      <trkpt lat="45.67778" lon="5.99824">
        <ele>1375.884748596</ele>
        <time>2015-02-04T11:45:49Z</time>
      </trkpt>
      <trkpt lat="45.67778" lon="5.99824">
        <ele>1375.884748596</ele>
        <time>2015-02-04T11:46:17Z</time>
      </trkpt>
      <trkpt lat="45.67778" lon="5.99823">
        <ele>1375.884748596</ele>
        <time>2015-02-04T11:47:00Z</time>
      </trkpt>
      <trkpt lat="45.67778" lon="5.99823">
        <ele>1375.884748596</ele>
        <time>2015-02-04T11:47:11Z</time>
      </trkpt>
      <trkpt lat="45.67646" lon="5.99774">
        <ele>1377.046713399</ele>
        <time>2015-02-04T11:47:39Z</time>
      </trkpt>
      <trkpt lat="45.67624" lon="5.9973">
        <ele>1378.481418463</ele>
        <time>2015-02-04T11:47:46Z</time>
      </trkpt>
      <trkpt lat="45.67561" lon="5.9968">
        <ele>1379.157333891</ele>
        <time>2015-02-04T11:48:07Z</time>
      </trkpt>
      <trkpt lat="45.67514" lon="5.9966">
        <ele>1379.129740913</ele>
        <time>2015-02-04T11:48:09Z</time>
      </trkpt>
      <trkpt lat="45.67494" lon="5.99661">
        <ele>1378.884286828</ele>
        <time>2015-02-04T11:48:15Z</time>
      </trkpt>
      <trkpt lat="45.6746" lon="5.99642">
        <ele>1378.727552295</ele>
        <time>2015-02-04T11:48:21Z</time>
      </trkpt>
      <trkpt lat="45.67456" lon="5.99639">
        <ele>1378.727552295</ele>
        <time>2015-02-04T11:48:25Z</time>
      </trkpt>
      <trkpt lat="45.67429" lon="5.99628">
        <ele>1378.511109523</ele>
        <time>2015-02-04T11:48:30Z</time>
      </trkpt>
      <trkpt lat="45.67387" lon="5.99593">
        <ele>1377.08890244</ele>
        <time>2015-02-04T11:48:40Z</time>
      </trkpt>
      <trkpt lat="45.67356" lon="5.99577">
        <ele>1376.572955251</ele>
        <time>2015-02-04T11:49:00Z</time>
      </trkpt>
      <trkpt lat="45.67344" lon="5.99581">
        <ele>1376.611871803</ele>
        <time>2015-02-04T11:49:11Z</time>
      </trkpt>
      <trkpt lat="45.67218" lon="5.99587">
        <ele>1377.166770966</ele>
        <time>2015-02-04T11:49:50Z</time>
      </trkpt>
      <trkpt lat="45.67204" lon="5.99558">
        <ele>1377.335538611</ele>
        <time>2015-02-04T11:50:08Z</time>
      </trkpt>
      <trkpt lat="45.67198" lon="5.99533">
        <ele>1377.868654378</ele>
        <time>2015-02-04T11:50:14Z</time>
      </trkpt>
      <trkpt lat="45.67159" lon="5.99473">
        <ele>1377.587013926</ele>
        <time>2015-02-04T11:50:44Z</time>
      </trkpt>
      <trkpt lat="45.67133" lon="5.99402">
        <ele>1377.12975577</ele>
        <time>2015-02-04T11:51:00Z</time>
      </trkpt>
      <trkpt lat="45.67095" lon="5.99342">
        <ele>1376.08078063</ele>
        <time>2015-02-04T11:51:14Z</time>
      </trkpt>
      <trkpt lat="45.67083" lon="5.99329">
        <ele>1375.064982148</ele>
        <time>2015-02-04T11:51:19Z</time>
      </trkpt>
      <trkpt lat="45.6695" lon="5.99155">
        <ele>1374.517122768</ele>
        <time>2015-02-04T11:52:07Z</time>
      </trkpt>
      <trkpt lat="45.6693" lon="5.99138">
        <ele>1373.685791498</ele>
        <time>2015-02-04T11:52:14Z</time>
      </trkpt>
      <trkpt lat="45.66918" lon="5.99132">
        <ele>1372.451970201</ele>
        <time>2015-02-04T11:52:27Z</time>
      </trkpt>
      <trkpt lat="45.66896" lon="5.99121">
        <ele>1372.2916819</ele>
        <time>2015-02-04T11:52:32Z</time>
      </trkpt>
      <trkpt lat="45.66841" lon="5.99079">
        <ele>1373.416562354</ele>
        <time>2015-02-04T11:53:00Z</time>
      </trkpt>
      <trkpt lat="45.66831" lon="5.99045">
        <ele>1374.001478056</ele>
        <time>2015-02-04T11:53:09Z</time>
      </trkpt>
      <trkpt lat="45.66825" lon="5.99011">
        <ele>1374.230268452</ele>
        <time>2015-02-04T11:53:16Z</time>
      </trkpt>
      <trkpt lat="45.66734" lon="5.98842">
        <ele>1374.8506558</ele>
        <time>2015-02-04T11:54:05Z</time>
      </trkpt>
      <trkpt lat="45.66724" lon="5.98828">
        <ele>1375.257283919</ele>
        <time>2015-02-04T11:54:11Z</time>
      </trkpt>
      <trkpt lat="45.66713" lon="5.98812">
        <ele>1375.322149076</ele>
        <time>2015-02-04T11:54:18Z</time>
      </trkpt>
      <trkpt lat="45.66682" lon="5.98687">
        <ele>1374.639337614</ele>
        <time>2015-02-04T11:54:35Z</time>
      </trkpt>
      <trkpt lat="45.66142" lon="5.97992">
        <ele>1377.446364416</ele>
        <time>2015-02-04T11:59:26Z</time>
      </trkpt>
      <trkpt lat="45.65908" lon="5.98058">
        <ele>1377.571845159</ele>
        <time>2015-02-04T12:00:55Z</time>
      </trkpt>
      <trkpt lat="45.65886" lon="5.98044">
        <ele>1378.096007837</ele>
        <time>2015-02-04T12:01:00Z</time>
      </trkpt>
      <trkpt lat="45.65712" lon="5.98117">
        <ele>1378.412989552</ele>
        <time>2015-02-04T12:01:45Z</time>
      </trkpt>
      <trkpt lat="45.65698" lon="5.98133">
        <ele>1376.232648424</ele>
        <time>2015-02-04T12:01:50Z</time>
      </trkpt>
      <trkpt lat="45.65646" lon="5.9815">
        <ele>1374.628044934</ele>
        <time>2015-02-04T12:02:10Z</time>
      </trkpt>
      <trkpt lat="45.65613" lon="5.98157">
        <ele>1374.57138988</ele>
        <time>2015-02-04T12:02:12Z</time>
      </trkpt>
      <trkpt lat="45.65607" lon="5.98155">
        <ele>1374.57138988</ele>
        <time>2015-02-04T12:02:16Z</time>
      </trkpt>
      <trkpt lat="45.65589" lon="5.98261">
        <ele>1373.356300483</ele>
        <time>2015-02-04T12:02:39Z</time>
      </trkpt>
      <trkpt lat="45.65588" lon="5.98267">
        <ele>1373.356300483</ele>
        <time>2015-02-04T12:02:48Z</time>
      </trkpt>
      <trkpt lat="45.65583" lon="5.98315">
        <ele>1371.937057264</ele>
        <time>2015-02-04T12:02:49Z</time>
      </trkpt>
      <trkpt lat="45.65572" lon="5.98339">
        <ele>1370.621896697</ele>
        <time>2015-02-04T12:03:00Z</time>
      </trkpt>
      <trkpt lat="45.65541" lon="5.98382">
        <ele>1369.840154118</ele>
        <time>2015-02-04T12:03:08Z</time>
      </trkpt>
      <trkpt lat="45.6547" lon="5.98327">
        <ele>1369.699824485</ele>
        <time>2015-02-04T12:03:36Z</time>
      </trkpt>
      <trkpt lat="45.65463" lon="5.98318">
        <ele>1369.722639936</ele>
        <time>2015-02-04T12:03:39Z</time>
      </trkpt>
      <trkpt lat="45.65462" lon="5.98315">
        <ele>1369.722639936</ele>
        <time>2015-02-04T12:03:47Z</time>
      </trkpt>
      <trkpt lat="45.65459" lon="5.98302">
        <ele>1370.041368408</ele>
        <time>2015-02-04T12:03:49Z</time>
      </trkpt>
      <trkpt lat="45.65343" lon="5.98198">
        <ele>1368.328220819</ele>
        <time>2015-02-04T12:04:39Z</time>
      </trkpt>
      <trkpt lat="45.65325" lon="5.982">
        <ele>1367.475914188</ele>
        <time>2015-02-04T12:04:47Z</time>
      </trkpt>
      <trkpt lat="45.65249" lon="5.98235">
        <ele>1366.559390499</ele>
        <time>2015-02-04T12:05:04Z</time>
      </trkpt>
      <trkpt lat="45.6518" lon="5.98567">
        <ele>1364.145192606</ele>
        <time>2015-02-04T12:05:39Z</time>
      </trkpt>
      <trkpt lat="45.6494" lon="5.98572">
        <ele>1357.900484365</ele>
        <time>2015-02-04T12:06:40Z</time>
      </trkpt>
      <trkpt lat="45.64911" lon="5.98592">
        <ele>1351.58297853</ele>
        <time>2015-02-04T12:06:47Z</time>
      </trkpt>
      <trkpt lat="45.6475" lon="5.9854">
        <ele>1346.224511751</ele>
        <time>2015-02-04T12:07:39Z</time>
      </trkpt>
      <trkpt lat="45.6475" lon="5.9854">
        <ele>1346.224511751</ele>
        <time>2015-02-04T12:07:59Z</time>
      </trkpt>
      <trkpt lat="45.64749" lon="5.9854">
        <ele>1346.224511751</ele>
        <time>2015-02-04T12:08:04Z</time>
      </trkpt>
      <trkpt lat="45.64749" lon="5.9854">
        <ele>1346.224511751</ele>
        <time>2015-02-04T12:08:09Z</time>
      </trkpt>
      <trkpt lat="45.64749" lon="5.98541">
        <ele>1346.224511751</ele>
        <time>2015-02-04T12:08:14Z</time>
      </trkpt>
    </trkseg>
  </trk>
</gpx>